<?xml version="1.0" encoding="UTF-8" standalone="no" ?>
<gpx xmlns="http://www.topografix.com/GPX/1/1" xmlns:xsi="http://www.w3.org/2001/XMLSchema-instance" xsi:schemaLocation="http://www.topografix.com/GPX/1/1 http://www.topografix.com/GPX/1/1/gpx.xsd" version="1.1" creator="VisuGPX - https://www.visugpx.com">
  <metadata>
    <name>Trek Ecrins </name>
    <desc><![CDATA[Trek de 3 jours au départ des Andrieux vers le refuge des Souffles le premier jour. Puis col de Colombe et refuge de l'Olan le second jour. Retour aux Andrieux le dernier jour.]]></desc>
  </metadata>
  <wpt lat="44.82057" lon="6.16584">
    <ele>1046</ele>
    <name><![CDATA[Arrivée]]></name>
    <desc><![CDATA[La Chapelle-En-Valgaudémar]]></desc>
    <cmt><![CDATA[La Chapelle-En-Valgaudémar]]></cmt>
  </wpt>
  <wpt lat="44.82066" lon="6.16601">
    <ele>1046.6</ele>
    <name><![CDATA[Départ]]></name>
    <desc><![CDATA[parking]]></desc>
    <cmt><![CDATA[parking]]></cmt>
  </wpt>
  <wpt lat="44.84147" lon="6.20453">
    <ele>2338.8</ele>
    <name><![CDATA[Refuge de L'Ol]]></name>
    <desc><![CDATA[Refuge de L'Olan]]></desc>
    <cmt><![CDATA[Refuge de L'Olan]]></cmt>
  </wpt>
  <wpt lat="44.84467" lon="6.14653">
    <ele>1968.5</ele>
    <name><![CDATA[Refuge Des Sou]]></name>
    <desc><![CDATA[Refuge Des Souffles]]></desc>
    <cmt><![CDATA[Refuge Des Souffles]]></cmt>
  </wpt>
  <trk>
    <name><![CDATA[Jour 1]]></name>
    <trkseg>
      <trkpt lat="44.82076" lon="6.16577">
        <ele>1064.3166503906</ele>
        <time>2020-08-14T10:33:34Z</time>
      </trkpt>
      <trkpt lat="44.82074" lon="6.1658">
        <ele>1047.4936523438</ele>
        <time>2020-08-14T10:34:58Z</time>
      </trkpt>
      <trkpt lat="44.82073" lon="6.16581">
        <ele>1047.9743652344</ele>
        <time>2020-08-14T10:35:11Z</time>
      </trkpt>
      <trkpt lat="44.82073" lon="6.1658">
        <ele>1047.4936523438</ele>
        <time>2020-08-14T10:35:14Z</time>
      </trkpt>
      <trkpt lat="44.82082" lon="6.16561">
        <ele>1043.6484375</ele>
        <time>2020-08-14T10:35:25Z</time>
      </trkpt>
      <trkpt lat="44.82086" lon="6.16556">
        <ele>1042.6872558594</ele>
        <time>2020-08-14T10:35:29Z</time>
      </trkpt>
      <trkpt lat="44.82094" lon="6.16546">
        <ele>1040.7644042969</ele>
        <time>2020-08-14T10:35:36Z</time>
      </trkpt>
      <trkpt lat="44.82101" lon="6.16524">
        <ele>1036.4387207031</ele>
        <time>2020-08-14T10:35:49Z</time>
      </trkpt>
      <trkpt lat="44.8211" lon="6.16498">
        <ele>1032.1125488281</ele>
        <time>2020-08-14T10:36:03Z</time>
      </trkpt>
      <trkpt lat="44.82111" lon="6.16482">
        <ele>1028.748046875</ele>
        <time>2020-08-14T10:36:13Z</time>
      </trkpt>
      <trkpt lat="44.82101" lon="6.16486">
        <ele>1034.03515625</ele>
        <time>2020-08-14T10:36:27Z</time>
      </trkpt>
      <trkpt lat="44.82101" lon="6.16484">
        <ele>1034.9965820312</ele>
        <time>2020-08-14T10:36:38Z</time>
      </trkpt>
      <trkpt lat="44.82101" lon="6.16457">
        <ele>1036.9191894531</ele>
        <time>2020-08-14T10:36:53Z</time>
      </trkpt>
      <trkpt lat="44.82093" lon="6.16412">
        <ele>1039.8032226562</ele>
        <time>2020-08-14T10:37:18Z</time>
      </trkpt>
      <trkpt lat="44.82089" lon="6.16394">
        <ele>1040.7644042969</ele>
        <time>2020-08-14T10:37:30Z</time>
      </trkpt>
      <trkpt lat="44.82088" lon="6.16389">
        <ele>1040.2839355469</ele>
        <time>2020-08-14T10:37:33Z</time>
      </trkpt>
      <trkpt lat="44.82089" lon="6.16381">
        <ele>1037.8806152344</ele>
        <time>2020-08-14T10:37:39Z</time>
      </trkpt>
      <trkpt lat="44.8209" lon="6.16351">
        <ele>1035.9577636719</ele>
        <time>2020-08-14T10:37:57Z</time>
      </trkpt>
      <trkpt lat="44.82091" lon="6.16327">
        <ele>1034.9965820312</ele>
        <time>2020-08-14T10:38:10Z</time>
      </trkpt>
      <trkpt lat="44.82089" lon="6.1632">
        <ele>1036.4387207031</ele>
        <time>2020-08-14T10:38:14Z</time>
      </trkpt>
      <trkpt lat="44.82089" lon="6.16305">
        <ele>1038.8420410156</ele>
        <time>2020-08-14T10:38:22Z</time>
      </trkpt>
      <trkpt lat="44.82089" lon="6.16296">
        <ele>1040.2839355469</ele>
        <time>2020-08-14T10:38:27Z</time>
      </trkpt>
      <trkpt lat="44.82088" lon="6.16287">
        <ele>1041.7258300781</ele>
        <time>2020-08-14T10:38:32Z</time>
      </trkpt>
      <trkpt lat="44.8209" lon="6.16283">
        <ele>1042.2065429688</ele>
        <time>2020-08-14T10:38:34Z</time>
      </trkpt>
      <trkpt lat="44.82091" lon="6.16271">
        <ele>1044.1291503906</ele>
        <time>2020-08-14T10:38:41Z</time>
      </trkpt>
      <trkpt lat="44.82096" lon="6.16254">
        <ele>1047.9743652344</ele>
        <time>2020-08-14T10:38:52Z</time>
      </trkpt>
      <trkpt lat="44.82109" lon="6.16244">
        <ele>1045.5710449219</ele>
        <time>2020-08-14T10:39:11Z</time>
      </trkpt>
      <trkpt lat="44.82108" lon="6.16245">
        <ele>1045.0903320312</ele>
        <time>2020-08-14T10:39:14Z</time>
      </trkpt>
      <trkpt lat="44.82115" lon="6.16244">
        <ele>1044.1291503906</ele>
        <time>2020-08-14T10:39:30Z</time>
      </trkpt>
      <trkpt lat="44.82111" lon="6.1623">
        <ele>1042.6872558594</ele>
        <time>2020-08-14T10:40:01Z</time>
      </trkpt>
      <trkpt lat="44.82123" lon="6.16208">
        <ele>1043.1677246094</ele>
        <time>2020-08-14T10:40:12Z</time>
      </trkpt>
      <trkpt lat="44.82123" lon="6.16209">
        <ele>1044.1291503906</ele>
        <time>2020-08-14T10:40:31Z</time>
      </trkpt>
      <trkpt lat="44.8211" lon="6.16225">
        <ele>1041.7258300781</ele>
        <time>2020-08-14T10:40:49Z</time>
      </trkpt>
      <trkpt lat="44.82113" lon="6.16233">
        <ele>1041.7258300781</ele>
        <time>2020-08-14T10:41:01Z</time>
      </trkpt>
      <trkpt lat="44.82103" lon="6.16237">
        <ele>1042.6872558594</ele>
        <time>2020-08-14T10:41:05Z</time>
      </trkpt>
      <trkpt lat="44.82106" lon="6.16245">
        <ele>1044.1291503906</ele>
        <time>2020-08-14T10:41:14Z</time>
      </trkpt>
      <trkpt lat="44.82113" lon="6.16266">
        <ele>1044.6096191406</ele>
        <time>2020-08-14T10:41:30Z</time>
      </trkpt>
      <trkpt lat="44.82114" lon="6.16266">
        <ele>1045.5710449219</ele>
        <time>2020-08-14T10:41:54Z</time>
      </trkpt>
      <trkpt lat="44.82112" lon="6.16236">
        <ele>1043.6484375</ele>
        <time>2020-08-14T10:42:12Z</time>
      </trkpt>
      <trkpt lat="44.82114" lon="6.16234">
        <ele>1043.1677246094</ele>
        <time>2020-08-14T10:42:15Z</time>
      </trkpt>
      <trkpt lat="44.82138" lon="6.16215">
        <ele>1044.6096191406</ele>
        <time>2020-08-14T10:42:34Z</time>
      </trkpt>
      <trkpt lat="44.82155" lon="6.16207">
        <ele>1042.2065429688</ele>
        <time>2020-08-14T10:42:49Z</time>
      </trkpt>
      <trkpt lat="44.82164" lon="6.16198">
        <ele>1038.8420410156</ele>
        <time>2020-08-14T10:43:06Z</time>
      </trkpt>
      <trkpt lat="44.82183" lon="6.16168">
        <ele>1036.4387207031</ele>
        <time>2020-08-14T10:43:25Z</time>
      </trkpt>
      <trkpt lat="44.82187" lon="6.16164">
        <ele>1035.4770507812</ele>
        <time>2020-08-14T10:43:29Z</time>
      </trkpt>
      <trkpt lat="44.82204" lon="6.16139">
        <ele>1032.5932617188</ele>
        <time>2020-08-14T10:43:47Z</time>
      </trkpt>
      <trkpt lat="44.8221" lon="6.16127">
        <ele>1033.0737304688</ele>
        <time>2020-08-14T10:43:55Z</time>
      </trkpt>
      <trkpt lat="44.82212" lon="6.16123">
        <ele>1032.1125488281</ele>
        <time>2020-08-14T10:43:59Z</time>
      </trkpt>
      <trkpt lat="44.82226" lon="6.16111">
        <ele>1032.5932617188</ele>
        <time>2020-08-14T10:44:13Z</time>
      </trkpt>
      <trkpt lat="44.82226" lon="6.16108">
        <ele>1034.5158691406</ele>
        <time>2020-08-14T10:45:06Z</time>
      </trkpt>
      <trkpt lat="44.82225" lon="6.16116">
        <ele>1036.4387207031</ele>
        <time>2020-08-14T10:45:40Z</time>
      </trkpt>
      <trkpt lat="44.82232" lon="6.1614">
        <ele>1040.2839355469</ele>
        <time>2020-08-14T10:45:56Z</time>
      </trkpt>
      <trkpt lat="44.82231" lon="6.16152">
        <ele>1043.1677246094</ele>
        <time>2020-08-14T10:46:06Z</time>
      </trkpt>
      <trkpt lat="44.82235" lon="6.16181">
        <ele>1049.4162597656</ele>
        <time>2020-08-14T10:46:25Z</time>
      </trkpt>
      <trkpt lat="44.82235" lon="6.16182">
        <ele>1049.8969726562</ele>
        <time>2020-08-14T10:46:27Z</time>
      </trkpt>
      <trkpt lat="44.82243" lon="6.16193">
        <ele>1053.7424316406</ele>
        <time>2020-08-14T10:46:37Z</time>
      </trkpt>
      <trkpt lat="44.82252" lon="6.16212">
        <ele>1056.6262207031</ele>
        <time>2020-08-14T10:47:00Z</time>
      </trkpt>
      <trkpt lat="44.82256" lon="6.16227">
        <ele>1059.0295410156</ele>
        <time>2020-08-14T10:47:16Z</time>
      </trkpt>
      <trkpt lat="44.82261" lon="6.16243">
        <ele>1062.3940429688</ele>
        <time>2020-08-14T10:47:31Z</time>
      </trkpt>
      <trkpt lat="44.82261" lon="6.16262">
        <ele>1065.7587890625</ele>
        <time>2020-08-14T10:47:53Z</time>
      </trkpt>
      <trkpt lat="44.82263" lon="6.16282">
        <ele>1065.7587890625</ele>
        <time>2020-08-14T10:48:11Z</time>
      </trkpt>
      <trkpt lat="44.82268" lon="6.16298">
        <ele>1068.162109375</ele>
        <time>2020-08-14T10:48:28Z</time>
      </trkpt>
      <trkpt lat="44.82275" lon="6.16311">
        <ele>1070.5654296875</ele>
        <time>2020-08-14T10:48:44Z</time>
      </trkpt>
      <trkpt lat="44.82271" lon="6.16313">
        <ele>1070.5654296875</ele>
        <time>2020-08-14T10:49:48Z</time>
      </trkpt>
      <trkpt lat="44.82255" lon="6.16326">
        <ele>1070.5654296875</ele>
        <time>2020-08-14T10:50:04Z</time>
      </trkpt>
      <trkpt lat="44.82258" lon="6.16349">
        <ele>1071.0461425781</ele>
        <time>2020-08-14T10:50:18Z</time>
      </trkpt>
      <trkpt lat="44.82261" lon="6.16382">
        <ele>1072.0073242188</ele>
        <time>2020-08-14T10:50:42Z</time>
      </trkpt>
      <trkpt lat="44.82261" lon="6.16388">
        <ele>1071.5266113281</ele>
        <time>2020-08-14T10:50:46Z</time>
      </trkpt>
      <trkpt lat="44.82266" lon="6.16409">
        <ele>1070.0847167969</ele>
        <time>2020-08-14T10:51:00Z</time>
      </trkpt>
      <trkpt lat="44.82269" lon="6.1642">
        <ele>1069.1235351562</ele>
        <time>2020-08-14T10:51:07Z</time>
      </trkpt>
      <trkpt lat="44.82284" lon="6.16424">
        <ele>1070.5654296875</ele>
        <time>2020-08-14T10:51:24Z</time>
      </trkpt>
      <trkpt lat="44.82302" lon="6.16414">
        <ele>1073.4494628906</ele>
        <time>2020-08-14T10:51:42Z</time>
      </trkpt>
      <trkpt lat="44.82318" lon="6.16418">
        <ele>1080.6591796875</ele>
        <time>2020-08-14T10:52:08Z</time>
      </trkpt>
      <trkpt lat="44.82324" lon="6.16417">
        <ele>1082.1010742188</ele>
        <time>2020-08-14T10:52:17Z</time>
      </trkpt>
      <trkpt lat="44.8233" lon="6.16418">
        <ele>1084.5046386719</ele>
        <time>2020-08-14T10:52:29Z</time>
      </trkpt>
      <trkpt lat="44.82341" lon="6.16428">
        <ele>1089.3110351562</ele>
        <time>2020-08-14T10:52:46Z</time>
      </trkpt>
      <trkpt lat="44.82354" lon="6.16429">
        <ele>1092.1950683594</ele>
        <time>2020-08-14T10:53:06Z</time>
      </trkpt>
      <trkpt lat="44.82366" lon="6.16425">
        <ele>1095.0788574219</ele>
        <time>2020-08-14T10:53:24Z</time>
      </trkpt>
      <trkpt lat="44.82374" lon="6.16416">
        <ele>1094.5981445312</ele>
        <time>2020-08-14T10:53:41Z</time>
      </trkpt>
      <trkpt lat="44.8238" lon="6.16408">
        <ele>1094.1176757812</ele>
        <time>2020-08-14T10:53:57Z</time>
      </trkpt>
      <trkpt lat="44.82387" lon="6.16411">
        <ele>1096.0402832031</ele>
        <time>2020-08-14T10:54:10Z</time>
      </trkpt>
      <trkpt lat="44.82392" lon="6.16409">
        <ele>1095.0788574219</ele>
        <time>2020-08-14T10:54:29Z</time>
      </trkpt>
      <trkpt lat="44.82407" lon="6.1641">
        <ele>1098.443359375</ele>
        <time>2020-08-14T10:55:05Z</time>
      </trkpt>
      <trkpt lat="44.82418" lon="6.16411">
        <ele>1102.2888183594</ele>
        <time>2020-08-14T10:55:27Z</time>
      </trkpt>
      <trkpt lat="44.82427" lon="6.16404">
        <ele>1104.6921386719</ele>
        <time>2020-08-14T10:55:47Z</time>
      </trkpt>
      <trkpt lat="44.82431" lon="6.16384">
        <ele>1109.9792480469</ele>
        <time>2020-08-14T10:56:13Z</time>
      </trkpt>
      <trkpt lat="44.82436" lon="6.16364">
        <ele>1111.9020996094</ele>
        <time>2020-08-14T10:56:34Z</time>
      </trkpt>
      <trkpt lat="44.82436" lon="6.16346">
        <ele>1114.7858886719</ele>
        <time>2020-08-14T10:56:52Z</time>
      </trkpt>
      <trkpt lat="44.82437" lon="6.16341">
        <ele>1116.2280273438</ele>
        <time>2020-08-14T10:56:58Z</time>
      </trkpt>
      <trkpt lat="44.82438" lon="6.16334">
        <ele>1115.2666015625</ele>
        <time>2020-08-14T10:57:19Z</time>
      </trkpt>
      <trkpt lat="44.8244" lon="6.1633">
        <ele>1112.86328125</ele>
        <time>2020-08-14T10:57:56Z</time>
      </trkpt>
      <trkpt lat="44.82441" lon="6.16319">
        <ele>1112.86328125</ele>
        <time>2020-08-14T10:58:14Z</time>
      </trkpt>
      <trkpt lat="44.82448" lon="6.16319">
        <ele>1115.2666015625</ele>
        <time>2020-08-14T10:58:39Z</time>
      </trkpt>
      <trkpt lat="44.82459" lon="6.16322">
        <ele>1119.1120605469</ele>
        <time>2020-08-14T10:59:05Z</time>
      </trkpt>
      <trkpt lat="44.82476" lon="6.16314">
        <ele>1121.9958496094</ele>
        <time>2020-08-14T10:59:34Z</time>
      </trkpt>
      <trkpt lat="44.8249" lon="6.16314">
        <ele>1125.3603515625</ele>
        <time>2020-08-14T10:59:56Z</time>
      </trkpt>
      <trkpt lat="44.82497" lon="6.1631">
        <ele>1129.6862792969</ele>
        <time>2020-08-14T11:00:15Z</time>
      </trkpt>
      <trkpt lat="44.82497" lon="6.16315">
        <ele>1132.5705566406</ele>
        <time>2020-08-14T11:00:33Z</time>
      </trkpt>
      <trkpt lat="44.82499" lon="6.16322">
        <ele>1134.0124511719</ele>
        <time>2020-08-14T11:00:57Z</time>
      </trkpt>
      <trkpt lat="44.82499" lon="6.16322">
        <ele>1133.5317382812</ele>
        <time>2020-08-14T11:01:20Z</time>
      </trkpt>
      <trkpt lat="44.825" lon="6.16328">
        <ele>1130.6477050781</ele>
        <time>2020-08-14T11:01:33Z</time>
      </trkpt>
      <trkpt lat="44.82503" lon="6.16337">
        <ele>1131.6088867188</ele>
        <time>2020-08-14T11:01:49Z</time>
      </trkpt>
      <trkpt lat="44.82518" lon="6.16334">
        <ele>1134.9738769531</ele>
        <time>2020-08-14T11:02:16Z</time>
      </trkpt>
      <trkpt lat="44.82522" lon="6.16336">
        <ele>1137.376953125</ele>
        <time>2020-08-14T11:02:27Z</time>
      </trkpt>
      <trkpt lat="44.82523" lon="6.16347">
        <ele>1139.7802734375</ele>
        <time>2020-08-14T11:02:48Z</time>
      </trkpt>
      <trkpt lat="44.82526" lon="6.16351">
        <ele>1141.2221679688</ele>
        <time>2020-08-14T11:03:08Z</time>
      </trkpt>
      <trkpt lat="44.82526" lon="6.1635">
        <ele>1141.7028808594</ele>
        <time>2020-08-14T11:03:13Z</time>
      </trkpt>
      <trkpt lat="44.82532" lon="6.16345">
        <ele>1143.6254882812</ele>
        <time>2020-08-14T11:03:28Z</time>
      </trkpt>
      <trkpt lat="44.82537" lon="6.16333">
        <ele>1144.5866699219</ele>
        <time>2020-08-14T11:03:45Z</time>
      </trkpt>
      <trkpt lat="44.82542" lon="6.16325">
        <ele>1145.0673828125</ele>
        <time>2020-08-14T11:03:58Z</time>
      </trkpt>
      <trkpt lat="44.82553" lon="6.1631">
        <ele>1146.9899902344</ele>
        <time>2020-08-14T11:04:30Z</time>
      </trkpt>
      <trkpt lat="44.82559" lon="6.16302">
        <ele>1149.3935546875</ele>
        <time>2020-08-14T11:05:02Z</time>
      </trkpt>
      <trkpt lat="44.82559" lon="6.16306">
        <ele>1153.7194824219</ele>
        <time>2020-08-14T11:05:56Z</time>
      </trkpt>
      <trkpt lat="44.82562" lon="6.16309">
        <ele>1155.1613769531</ele>
        <time>2020-08-14T11:06:19Z</time>
      </trkpt>
      <trkpt lat="44.82563" lon="6.16311">
        <ele>1155.1613769531</ele>
        <time>2020-08-14T11:06:42Z</time>
      </trkpt>
      <trkpt lat="44.82565" lon="6.16311">
        <ele>1151.796875</ele>
        <time>2020-08-14T11:07:03Z</time>
      </trkpt>
      <trkpt lat="44.82568" lon="6.16314">
        <ele>1149.8742675781</ele>
        <time>2020-08-14T11:07:26Z</time>
      </trkpt>
      <trkpt lat="44.82579" lon="6.1631">
        <ele>1150.3549804688</ele>
        <time>2020-08-14T11:07:44Z</time>
      </trkpt>
      <trkpt lat="44.82582" lon="6.16303">
        <ele>1149.8742675781</ele>
        <time>2020-08-14T11:08:07Z</time>
      </trkpt>
      <trkpt lat="44.82586" lon="6.16293">
        <ele>1148.4321289062</ele>
        <time>2020-08-14T11:08:28Z</time>
      </trkpt>
      <trkpt lat="44.82591" lon="6.16288">
        <ele>1148.4321289062</ele>
        <time>2020-08-14T11:08:36Z</time>
      </trkpt>
      <trkpt lat="44.82599" lon="6.16267">
        <ele>1150.3549804688</ele>
        <time>2020-08-14T11:08:57Z</time>
      </trkpt>
      <trkpt lat="44.82609" lon="6.16256">
        <ele>1151.796875</ele>
        <time>2020-08-14T11:09:20Z</time>
      </trkpt>
      <trkpt lat="44.8261" lon="6.16249">
        <ele>1154.6806640625</ele>
        <time>2020-08-14T11:09:37Z</time>
      </trkpt>
      <trkpt lat="44.82604" lon="6.16237">
        <ele>1163.8129882812</ele>
        <time>2020-08-14T11:09:53Z</time>
      </trkpt>
      <trkpt lat="44.82613" lon="6.16236">
        <ele>1164.2939453125</ele>
        <time>2020-08-14T11:10:16Z</time>
      </trkpt>
      <trkpt lat="44.82619" lon="6.16241">
        <ele>1166.697265625</ele>
        <time>2020-08-14T11:10:43Z</time>
      </trkpt>
      <trkpt lat="44.82616" lon="6.16218">
        <ele>1168.6198730469</ele>
        <time>2020-08-14T11:11:10Z</time>
      </trkpt>
      <trkpt lat="44.82616" lon="6.16217">
        <ele>1168.6198730469</ele>
        <time>2020-08-14T11:11:11Z</time>
      </trkpt>
      <trkpt lat="44.82617" lon="6.16207">
        <ele>1170.5424804688</ele>
        <time>2020-08-14T11:11:18Z</time>
      </trkpt>
      <trkpt lat="44.82618" lon="6.16192">
        <ele>1174.8684082031</ele>
        <time>2020-08-14T11:11:39Z</time>
      </trkpt>
      <trkpt lat="44.82613" lon="6.16177">
        <ele>1179.6748046875</ele>
        <time>2020-08-14T11:12:02Z</time>
      </trkpt>
      <trkpt lat="44.82615" lon="6.16176">
        <ele>1180.1557617188</ele>
        <time>2020-08-14T11:12:20Z</time>
      </trkpt>
      <trkpt lat="44.82617" lon="6.16163">
        <ele>1182.0783691406</ele>
        <time>2020-08-14T11:12:42Z</time>
      </trkpt>
      <trkpt lat="44.82621" lon="6.16147">
        <ele>1183.0395507812</ele>
        <time>2020-08-14T11:13:02Z</time>
      </trkpt>
      <trkpt lat="44.82618" lon="6.16128">
        <ele>1184.4816894531</ele>
        <time>2020-08-14T11:13:24Z</time>
      </trkpt>
      <trkpt lat="44.82617" lon="6.16105">
        <ele>1188.8076171875</ele>
        <time>2020-08-14T11:13:47Z</time>
      </trkpt>
      <trkpt lat="44.82615" lon="6.16093">
        <ele>1191.2106933594</ele>
        <time>2020-08-14T11:14:05Z</time>
      </trkpt>
      <trkpt lat="44.82614" lon="6.1609">
        <ele>1191.69140625</ele>
        <time>2020-08-14T11:15:02Z</time>
      </trkpt>
      <trkpt lat="44.82614" lon="6.16082">
        <ele>1191.69140625</ele>
        <time>2020-08-14T11:15:07Z</time>
      </trkpt>
      <trkpt lat="44.82617" lon="6.16075">
        <ele>1191.69140625</ele>
        <time>2020-08-14T11:15:11Z</time>
      </trkpt>
      <trkpt lat="44.82624" lon="6.16058">
        <ele>1191.2106933594</ele>
        <time>2020-08-14T11:15:24Z</time>
      </trkpt>
      <trkpt lat="44.82617" lon="6.16051">
        <ele>1191.2106933594</ele>
        <time>2020-08-14T11:15:43Z</time>
      </trkpt>
      <trkpt lat="44.82608" lon="6.16051">
        <ele>1190.7299804688</ele>
        <time>2020-08-14T11:16:05Z</time>
      </trkpt>
      <trkpt lat="44.8261" lon="6.16037">
        <ele>1190.7299804688</ele>
        <time>2020-08-14T11:16:51Z</time>
      </trkpt>
      <trkpt lat="44.82621" lon="6.16016">
        <ele>1187.3654785156</ele>
        <time>2020-08-14T11:17:17Z</time>
      </trkpt>
      <trkpt lat="44.82632" lon="6.15988">
        <ele>1184.9624023438</ele>
        <time>2020-08-14T11:17:43Z</time>
      </trkpt>
      <trkpt lat="44.8264" lon="6.15973">
        <ele>1182.5590820312</ele>
        <time>2020-08-14T11:17:59Z</time>
      </trkpt>
      <trkpt lat="44.82647" lon="6.15955">
        <ele>1184.0009765625</ele>
        <time>2020-08-14T11:18:17Z</time>
      </trkpt>
      <trkpt lat="44.8266" lon="6.1594">
        <ele>1184.9624023438</ele>
        <time>2020-08-14T11:18:38Z</time>
      </trkpt>
      <trkpt lat="44.82658" lon="6.15924">
        <ele>1184.9624023438</ele>
        <time>2020-08-14T11:18:59Z</time>
      </trkpt>
      <trkpt lat="44.82658" lon="6.15913">
        <ele>1184.9624023438</ele>
        <time>2020-08-14T11:19:10Z</time>
      </trkpt>
      <trkpt lat="44.82655" lon="6.15899">
        <ele>1184.0009765625</ele>
        <time>2020-08-14T11:19:25Z</time>
      </trkpt>
      <trkpt lat="44.82653" lon="6.15894">
        <ele>1182.5590820312</ele>
        <time>2020-08-14T11:19:30Z</time>
      </trkpt>
      <trkpt lat="44.82656" lon="6.15891">
        <ele>1183.0395507812</ele>
        <time>2020-08-14T11:19:33Z</time>
      </trkpt>
      <trkpt lat="44.82654" lon="6.15875">
        <ele>1183.5202636719</ele>
        <time>2020-08-14T11:19:44Z</time>
      </trkpt>
      <trkpt lat="44.82654" lon="6.15873">
        <ele>1184.0009765625</ele>
        <time>2020-08-14T11:19:46Z</time>
      </trkpt>
      <trkpt lat="44.82656" lon="6.1585">
        <ele>1184.4816894531</ele>
        <time>2020-08-14T11:20:03Z</time>
      </trkpt>
      <trkpt lat="44.82658" lon="6.15827">
        <ele>1184.0009765625</ele>
        <time>2020-08-14T11:20:20Z</time>
      </trkpt>
      <trkpt lat="44.82658" lon="6.15816">
        <ele>1184.9624023438</ele>
        <time>2020-08-14T11:20:31Z</time>
      </trkpt>
      <trkpt lat="44.82655" lon="6.15797">
        <ele>1183.5202636719</ele>
        <time>2020-08-14T11:20:47Z</time>
      </trkpt>
      <trkpt lat="44.82654" lon="6.15784">
        <ele>1184.0009765625</ele>
        <time>2020-08-14T11:21:05Z</time>
      </trkpt>
      <trkpt lat="44.82656" lon="6.15762">
        <ele>1181.59765625</ele>
        <time>2020-08-14T11:21:24Z</time>
      </trkpt>
      <trkpt lat="44.82655" lon="6.1574">
        <ele>1179.6748046875</ele>
        <time>2020-08-14T11:21:40Z</time>
      </trkpt>
      <trkpt lat="44.82665" lon="6.15723">
        <ele>1178.2329101562</ele>
        <time>2020-08-14T11:22:02Z</time>
      </trkpt>
      <trkpt lat="44.82672" lon="6.15712">
        <ele>1178.7136230469</ele>
        <time>2020-08-14T11:22:19Z</time>
      </trkpt>
      <trkpt lat="44.82677" lon="6.15692">
        <ele>1178.2329101562</ele>
        <time>2020-08-14T11:22:37Z</time>
      </trkpt>
      <trkpt lat="44.82678" lon="6.15675">
        <ele>1178.7136230469</ele>
        <time>2020-08-14T11:22:59Z</time>
      </trkpt>
      <trkpt lat="44.82669" lon="6.15651">
        <ele>1179.1940917969</ele>
        <time>2020-08-14T11:23:36Z</time>
      </trkpt>
      <trkpt lat="44.82665" lon="6.15627">
        <ele>1178.2329101562</ele>
        <time>2020-08-14T11:23:58Z</time>
      </trkpt>
      <trkpt lat="44.82664" lon="6.15622">
        <ele>1178.2329101562</ele>
        <time>2020-08-14T11:24:01Z</time>
      </trkpt>
      <trkpt lat="44.82655" lon="6.15599">
        <ele>1178.2329101562</ele>
        <time>2020-08-14T11:24:21Z</time>
      </trkpt>
      <trkpt lat="44.82646" lon="6.15577">
        <ele>1178.7136230469</ele>
        <time>2020-08-14T11:24:40Z</time>
      </trkpt>
      <trkpt lat="44.82644" lon="6.15563">
        <ele>1179.1940917969</ele>
        <time>2020-08-14T11:24:51Z</time>
      </trkpt>
      <trkpt lat="44.82645" lon="6.1556">
        <ele>1179.1940917969</ele>
        <time>2020-08-14T11:24:53Z</time>
      </trkpt>
      <trkpt lat="44.82654" lon="6.1554">
        <ele>1178.7136230469</ele>
        <time>2020-08-14T11:25:08Z</time>
      </trkpt>
      <trkpt lat="44.82651" lon="6.15512">
        <ele>1177.7521972656</ele>
        <time>2020-08-14T11:25:26Z</time>
      </trkpt>
      <trkpt lat="44.82651" lon="6.15506">
        <ele>1177.7521972656</ele>
        <time>2020-08-14T11:25:29Z</time>
      </trkpt>
      <trkpt lat="44.82651" lon="6.15502">
        <ele>1177.2717285156</ele>
        <time>2020-08-14T11:25:32Z</time>
      </trkpt>
      <trkpt lat="44.82655" lon="6.15482">
        <ele>1174.3876953125</ele>
        <time>2020-08-14T11:25:50Z</time>
      </trkpt>
      <trkpt lat="44.82654" lon="6.1546">
        <ele>1173.9069824219</ele>
        <time>2020-08-14T11:26:09Z</time>
      </trkpt>
      <trkpt lat="44.82645" lon="6.15435">
        <ele>1173.9069824219</ele>
        <time>2020-08-14T11:26:29Z</time>
      </trkpt>
      <trkpt lat="44.82638" lon="6.15413">
        <ele>1172.9458007812</ele>
        <time>2020-08-14T11:26:48Z</time>
      </trkpt>
      <trkpt lat="44.82637" lon="6.15402">
        <ele>1172.4650878906</ele>
        <time>2020-08-14T11:26:58Z</time>
      </trkpt>
      <trkpt lat="44.82636" lon="6.15397">
        <ele>1172.4650878906</ele>
        <time>2020-08-14T11:27:02Z</time>
      </trkpt>
      <trkpt lat="44.82635" lon="6.15386">
        <ele>1171.0231933594</ele>
        <time>2020-08-14T11:27:10Z</time>
      </trkpt>
      <trkpt lat="44.82636" lon="6.15368">
        <ele>1166.2165527344</ele>
        <time>2020-08-14T11:27:24Z</time>
      </trkpt>
      <trkpt lat="44.82636" lon="6.15348">
        <ele>1162.37109375</ele>
        <time>2020-08-14T11:27:39Z</time>
      </trkpt>
      <trkpt lat="44.82635" lon="6.15343">
        <ele>1161.4099121094</ele>
        <time>2020-08-14T11:27:43Z</time>
      </trkpt>
      <trkpt lat="44.82632" lon="6.15324">
        <ele>1159.0065917969</ele>
        <time>2020-08-14T11:27:56Z</time>
      </trkpt>
      <trkpt lat="44.82628" lon="6.15304">
        <ele>1155.1613769531</ele>
        <time>2020-08-14T11:28:09Z</time>
      </trkpt>
      <trkpt lat="44.82626" lon="6.15292">
        <ele>1151.3161621094</ele>
        <time>2020-08-14T11:28:24Z</time>
      </trkpt>
      <trkpt lat="44.82624" lon="6.15276">
        <ele>1149.8742675781</ele>
        <time>2020-08-14T11:28:44Z</time>
      </trkpt>
      <trkpt lat="44.8262" lon="6.15273">
        <ele>1149.3935546875</ele>
        <time>2020-08-14T11:28:50Z</time>
      </trkpt>
      <trkpt lat="44.82618" lon="6.15262">
        <ele>1148.9128417969</ele>
        <time>2020-08-14T11:29:05Z</time>
      </trkpt>
      <trkpt lat="44.82615" lon="6.15249">
        <ele>1147.9514160156</ele>
        <time>2020-08-14T11:29:24Z</time>
      </trkpt>
      <trkpt lat="44.82612" lon="6.15232">
        <ele>1145.5480957031</ele>
        <time>2020-08-14T11:29:39Z</time>
      </trkpt>
      <trkpt lat="44.82618" lon="6.15216">
        <ele>1148.4321289062</ele>
        <time>2020-08-14T11:29:56Z</time>
      </trkpt>
      <trkpt lat="44.82616" lon="6.15206">
        <ele>1146.0288085938</ele>
        <time>2020-08-14T11:30:08Z</time>
      </trkpt>
      <trkpt lat="44.82612" lon="6.15196">
        <ele>1144.5866699219</ele>
        <time>2020-08-14T11:30:18Z</time>
      </trkpt>
      <trkpt lat="44.82617" lon="6.15186">
        <ele>1142.6643066406</ele>
        <time>2020-08-14T11:30:31Z</time>
      </trkpt>
      <trkpt lat="44.82616" lon="6.1518">
        <ele>1142.18359375</ele>
        <time>2020-08-14T11:30:37Z</time>
      </trkpt>
      <trkpt lat="44.82619" lon="6.15158">
        <ele>1143.1447753906</ele>
        <time>2020-08-14T11:30:54Z</time>
      </trkpt>
      <trkpt lat="44.82617" lon="6.15156">
        <ele>1143.6254882812</ele>
        <time>2020-08-14T11:30:55Z</time>
      </trkpt>
      <trkpt lat="44.82618" lon="6.15153">
        <ele>1144.1062011719</ele>
        <time>2020-08-14T11:30:57Z</time>
      </trkpt>
      <trkpt lat="44.8262" lon="6.15144">
        <ele>1146.0288085938</ele>
        <time>2020-08-14T11:31:05Z</time>
      </trkpt>
      <trkpt lat="44.82627" lon="6.15128">
        <ele>1152.27734375</ele>
        <time>2020-08-14T11:31:20Z</time>
      </trkpt>
      <trkpt lat="44.82627" lon="6.15125">
        <ele>1152.7580566406</ele>
        <time>2020-08-14T11:31:22Z</time>
      </trkpt>
      <trkpt lat="44.82632" lon="6.15105">
        <ele>1157.5646972656</ele>
        <time>2020-08-14T11:31:40Z</time>
      </trkpt>
      <trkpt lat="44.82635" lon="6.15093">
        <ele>1159.9677734375</ele>
        <time>2020-08-14T11:31:51Z</time>
      </trkpt>
      <trkpt lat="44.82633" lon="6.15068">
        <ele>1163.3325195312</ele>
        <time>2020-08-14T11:32:07Z</time>
      </trkpt>
      <trkpt lat="44.8263" lon="6.15061">
        <ele>1163.8129882812</ele>
        <time>2020-08-14T11:32:12Z</time>
      </trkpt>
      <trkpt lat="44.8262" lon="6.15044">
        <ele>1163.8129882812</ele>
        <time>2020-08-14T11:32:25Z</time>
      </trkpt>
      <trkpt lat="44.82614" lon="6.15034">
        <ele>1163.8129882812</ele>
        <time>2020-08-14T11:32:34Z</time>
      </trkpt>
      <trkpt lat="44.82616" lon="6.15029">
        <ele>1160.4484863281</ele>
        <time>2020-08-14T11:32:39Z</time>
      </trkpt>
      <trkpt lat="44.82613" lon="6.15025">
        <ele>1159.4873046875</ele>
        <time>2020-08-14T11:32:42Z</time>
      </trkpt>
      <trkpt lat="44.82612" lon="6.15016">
        <ele>1156.1225585938</ele>
        <time>2020-08-14T11:32:51Z</time>
      </trkpt>
      <trkpt lat="44.82619" lon="6.14996">
        <ele>1155.1613769531</ele>
        <time>2020-08-14T11:33:07Z</time>
      </trkpt>
      <trkpt lat="44.8262" lon="6.14993">
        <ele>1155.1613769531</ele>
        <time>2020-08-14T11:33:09Z</time>
      </trkpt>
      <trkpt lat="44.82622" lon="6.14979">
        <ele>1153.7194824219</ele>
        <time>2020-08-14T11:33:20Z</time>
      </trkpt>
      <trkpt lat="44.82618" lon="6.14964">
        <ele>1151.796875</ele>
        <time>2020-08-14T11:33:34Z</time>
      </trkpt>
      <trkpt lat="44.82619" lon="6.14957">
        <ele>1151.3161621094</ele>
        <time>2020-08-14T11:33:42Z</time>
      </trkpt>
      <trkpt lat="44.8262" lon="6.14954">
        <ele>1151.796875</ele>
        <time>2020-08-14T11:33:45Z</time>
      </trkpt>
      <trkpt lat="44.82627" lon="6.14929">
        <ele>1142.6643066406</ele>
        <time>2020-08-14T11:34:06Z</time>
      </trkpt>
      <trkpt lat="44.8264" lon="6.14906">
        <ele>1141.2221679688</ele>
        <time>2020-08-14T11:34:26Z</time>
      </trkpt>
      <trkpt lat="44.82655" lon="6.14889">
        <ele>1139.2995605469</ele>
        <time>2020-08-14T11:34:42Z</time>
      </trkpt>
      <trkpt lat="44.82663" lon="6.14871">
        <ele>1136.4157714844</ele>
        <time>2020-08-14T11:34:58Z</time>
      </trkpt>
      <trkpt lat="44.82664" lon="6.14871">
        <ele>1135.9350585938</ele>
        <time>2020-08-14T11:34:59Z</time>
      </trkpt>
      <trkpt lat="44.82667" lon="6.14859">
        <ele>1135.4543457031</ele>
        <time>2020-08-14T11:35:08Z</time>
      </trkpt>
      <trkpt lat="44.82669" lon="6.14853">
        <ele>1134.4931640625</ele>
        <time>2020-08-14T11:35:13Z</time>
      </trkpt>
      <trkpt lat="44.82674" lon="6.14839">
        <ele>1133.0510253906</ele>
        <time>2020-08-14T11:35:26Z</time>
      </trkpt>
      <trkpt lat="44.82677" lon="6.14815">
        <ele>1132.08984375</ele>
        <time>2020-08-14T11:35:43Z</time>
      </trkpt>
      <trkpt lat="44.82676" lon="6.14794">
        <ele>1128.2443847656</ele>
        <time>2020-08-14T11:36:06Z</time>
      </trkpt>
      <trkpt lat="44.82672" lon="6.14783">
        <ele>1125.8410644531</ele>
        <time>2020-08-14T11:36:21Z</time>
      </trkpt>
      <trkpt lat="44.82675" lon="6.14779">
        <ele>1125.8410644531</ele>
        <time>2020-08-14T11:36:25Z</time>
      </trkpt>
      <trkpt lat="44.82678" lon="6.14771">
        <ele>1122.4765625</ele>
        <time>2020-08-14T11:36:35Z</time>
      </trkpt>
      <trkpt lat="44.82679" lon="6.14765">
        <ele>1122.4765625</ele>
        <time>2020-08-14T11:36:39Z</time>
      </trkpt>
      <trkpt lat="44.82689" lon="6.14747">
        <ele>1123.9184570312</ele>
        <time>2020-08-14T11:36:56Z</time>
      </trkpt>
      <trkpt lat="44.82691" lon="6.14742">
        <ele>1123.4379882812</ele>
        <time>2020-08-14T11:37:00Z</time>
      </trkpt>
      <trkpt lat="44.82694" lon="6.14739">
        <ele>1121.5151367188</ele>
        <time>2020-08-14T11:37:17Z</time>
      </trkpt>
      <trkpt lat="44.82693" lon="6.14733">
        <ele>1120.5539550781</ele>
        <time>2020-08-14T11:37:39Z</time>
      </trkpt>
      <trkpt lat="44.82697" lon="6.14725">
        <ele>1119.5927734375</ele>
        <time>2020-08-14T11:37:45Z</time>
      </trkpt>
      <trkpt lat="44.82693" lon="6.14708">
        <ele>1116.2280273438</ele>
        <time>2020-08-14T11:37:59Z</time>
      </trkpt>
      <trkpt lat="44.82689" lon="6.14691">
        <ele>1112.3825683594</ele>
        <time>2020-08-14T11:38:17Z</time>
      </trkpt>
      <trkpt lat="44.8269" lon="6.14683">
        <ele>1110.9406738281</ele>
        <time>2020-08-14T11:38:24Z</time>
      </trkpt>
      <trkpt lat="44.82696" lon="6.1467">
        <ele>1106.1340332031</ele>
        <time>2020-08-14T11:38:38Z</time>
      </trkpt>
      <trkpt lat="44.82703" lon="6.14652">
        <ele>1104.6921386719</ele>
        <time>2020-08-14T11:38:54Z</time>
      </trkpt>
      <trkpt lat="44.82704" lon="6.14639">
        <ele>1102.76953125</ele>
        <time>2020-08-14T11:39:07Z</time>
      </trkpt>
      <trkpt lat="44.82704" lon="6.14636">
        <ele>1098.443359375</ele>
        <time>2020-08-14T11:39:23Z</time>
      </trkpt>
      <trkpt lat="44.82704" lon="6.1463">
        <ele>1097.4821777344</ele>
        <time>2020-08-14T11:39:57Z</time>
      </trkpt>
      <trkpt lat="44.8271" lon="6.14623">
        <ele>1096.5209960938</ele>
        <time>2020-08-14T11:40:49Z</time>
      </trkpt>
      <trkpt lat="44.82714" lon="6.14618">
        <ele>1095.5595703125</ele>
        <time>2020-08-14T11:41:16Z</time>
      </trkpt>
      <trkpt lat="44.82728" lon="6.14606">
        <ele>1096.5209960938</ele>
        <time>2020-08-14T11:41:49Z</time>
      </trkpt>
      <trkpt lat="44.82731" lon="6.14603">
        <ele>1096.0402832031</ele>
        <time>2020-08-14T11:42:10Z</time>
      </trkpt>
      <trkpt lat="44.82728" lon="6.14599">
        <ele>1096.5209960938</ele>
        <time>2020-08-14T11:59:48Z</time>
      </trkpt>
      <trkpt lat="44.82726" lon="6.14606">
        <ele>1097.0014648438</ele>
        <time>2020-08-14T12:01:53Z</time>
      </trkpt>
      <trkpt lat="44.8272" lon="6.14604">
        <ele>1097.0014648438</ele>
        <time>2020-08-14T12:03:50Z</time>
      </trkpt>
      <trkpt lat="44.82726" lon="6.14601">
        <ele>1099.8854980469</ele>
        <time>2020-08-14T12:28:52Z</time>
      </trkpt>
      <trkpt lat="44.82728" lon="6.146">
        <ele>1099.4047851562</ele>
        <time>2020-08-14T12:31:20Z</time>
      </trkpt>
      <trkpt lat="44.82731" lon="6.14604">
        <ele>1101.8083496094</ele>
        <time>2020-08-14T12:31:35Z</time>
      </trkpt>
      <trkpt lat="44.82731" lon="6.14605">
        <ele>1101.8083496094</ele>
        <time>2020-08-14T12:31:37Z</time>
      </trkpt>
      <trkpt lat="44.82735" lon="6.14624">
        <ele>1104.2116699219</ele>
        <time>2020-08-14T12:31:54Z</time>
      </trkpt>
      <trkpt lat="44.82737" lon="6.14637">
        <ele>1105.1728515625</ele>
        <time>2020-08-14T12:32:09Z</time>
      </trkpt>
      <trkpt lat="44.82739" lon="6.14658">
        <ele>1104.6921386719</ele>
        <time>2020-08-14T12:32:29Z</time>
      </trkpt>
      <trkpt lat="44.82736" lon="6.14684">
        <ele>1106.6147460938</ele>
        <time>2020-08-14T12:32:54Z</time>
      </trkpt>
      <trkpt lat="44.82736" lon="6.14705">
        <ele>1110.9406738281</ele>
        <time>2020-08-14T12:33:16Z</time>
      </trkpt>
      <trkpt lat="44.82742" lon="6.14697">
        <ele>1113.3439941406</ele>
        <time>2020-08-14T12:33:35Z</time>
      </trkpt>
      <trkpt lat="44.82748" lon="6.14694">
        <ele>1114.7858886719</ele>
        <time>2020-08-14T12:33:58Z</time>
      </trkpt>
      <trkpt lat="44.82754" lon="6.14681">
        <ele>1117.669921875</ele>
        <time>2020-08-14T12:34:18Z</time>
      </trkpt>
      <trkpt lat="44.82759" lon="6.14665">
        <ele>1118.1506347656</ele>
        <time>2020-08-14T12:34:38Z</time>
      </trkpt>
      <trkpt lat="44.82766" lon="6.14655">
        <ele>1118.1506347656</ele>
        <time>2020-08-14T12:34:52Z</time>
      </trkpt>
      <trkpt lat="44.8277" lon="6.14645">
        <ele>1119.5927734375</ele>
        <time>2020-08-14T12:35:07Z</time>
      </trkpt>
      <trkpt lat="44.82779" lon="6.14628">
        <ele>1121.9958496094</ele>
        <time>2020-08-14T12:35:28Z</time>
      </trkpt>
      <trkpt lat="44.82785" lon="6.14613">
        <ele>1123.4379882812</ele>
        <time>2020-08-14T12:35:45Z</time>
      </trkpt>
      <trkpt lat="44.82799" lon="6.14591">
        <ele>1123.9184570312</ele>
        <time>2020-08-14T12:36:10Z</time>
      </trkpt>
      <trkpt lat="44.82809" lon="6.14576">
        <ele>1124.8798828125</ele>
        <time>2020-08-14T12:36:31Z</time>
      </trkpt>
      <trkpt lat="44.8282" lon="6.14567">
        <ele>1122.9572753906</ele>
        <time>2020-08-14T12:36:51Z</time>
      </trkpt>
      <trkpt lat="44.82827" lon="6.1456">
        <ele>1121.5151367188</ele>
        <time>2020-08-14T12:37:07Z</time>
      </trkpt>
      <trkpt lat="44.82838" lon="6.14541">
        <ele>1120.5539550781</ele>
        <time>2020-08-14T12:37:31Z</time>
      </trkpt>
      <trkpt lat="44.82848" lon="6.14525">
        <ele>1121.5151367188</ele>
        <time>2020-08-14T12:37:52Z</time>
      </trkpt>
      <trkpt lat="44.82845" lon="6.14525">
        <ele>1125.8410644531</ele>
        <time>2020-08-14T12:38:10Z</time>
      </trkpt>
      <trkpt lat="44.82853" lon="6.14512">
        <ele>1126.8024902344</ele>
        <time>2020-08-14T12:39:00Z</time>
      </trkpt>
      <trkpt lat="44.82864" lon="6.14498">
        <ele>1128.2443847656</ele>
        <time>2020-08-14T12:39:18Z</time>
      </trkpt>
      <trkpt lat="44.82873" lon="6.14482">
        <ele>1128.2443847656</ele>
        <time>2020-08-14T12:39:41Z</time>
      </trkpt>
      <trkpt lat="44.82879" lon="6.14462">
        <ele>1130.6477050781</ele>
        <time>2020-08-14T12:40:03Z</time>
      </trkpt>
      <trkpt lat="44.82891" lon="6.14448">
        <ele>1134.0124511719</ele>
        <time>2020-08-14T12:40:24Z</time>
      </trkpt>
      <trkpt lat="44.82907" lon="6.14425">
        <ele>1135.9350585938</ele>
        <time>2020-08-14T12:40:52Z</time>
      </trkpt>
      <trkpt lat="44.82917" lon="6.14411">
        <ele>1140.7414550781</ele>
        <time>2020-08-14T12:41:13Z</time>
      </trkpt>
      <trkpt lat="44.82924" lon="6.14393">
        <ele>1146.9899902344</ele>
        <time>2020-08-14T12:41:34Z</time>
      </trkpt>
      <trkpt lat="44.82923" lon="6.14374">
        <ele>1151.796875</ele>
        <time>2020-08-14T12:41:51Z</time>
      </trkpt>
      <trkpt lat="44.82929" lon="6.14356">
        <ele>1156.6032714844</ele>
        <time>2020-08-14T12:42:10Z</time>
      </trkpt>
      <trkpt lat="44.82939" lon="6.14352">
        <ele>1160.4484863281</ele>
        <time>2020-08-14T12:42:26Z</time>
      </trkpt>
      <trkpt lat="44.82946" lon="6.1436">
        <ele>1166.697265625</ele>
        <time>2020-08-14T12:42:43Z</time>
      </trkpt>
      <trkpt lat="44.82968" lon="6.14355">
        <ele>1175.3488769531</ele>
        <time>2020-08-14T12:43:10Z</time>
      </trkpt>
      <trkpt lat="44.82983" lon="6.14348">
        <ele>1183.5202636719</ele>
        <time>2020-08-14T12:43:33Z</time>
      </trkpt>
      <trkpt lat="44.82998" lon="6.1434">
        <ele>1190.2495117188</ele>
        <time>2020-08-14T12:43:53Z</time>
      </trkpt>
      <trkpt lat="44.83011" lon="6.1435">
        <ele>1196.4982910156</ele>
        <time>2020-08-14T12:44:16Z</time>
      </trkpt>
      <trkpt lat="44.83016" lon="6.14347">
        <ele>1199.8627929688</ele>
        <time>2020-08-14T12:44:41Z</time>
      </trkpt>
      <trkpt lat="44.83014" lon="6.14344">
        <ele>1200.8239746094</ele>
        <time>2020-08-14T12:45:07Z</time>
      </trkpt>
      <trkpt lat="44.83022" lon="6.14339">
        <ele>1201.3046875</ele>
        <time>2020-08-14T12:45:55Z</time>
      </trkpt>
      <trkpt lat="44.83036" lon="6.1434">
        <ele>1202.2658691406</ele>
        <time>2020-08-14T12:47:10Z</time>
      </trkpt>
      <trkpt lat="44.83045" lon="6.14338">
        <ele>1203.7080078125</ele>
        <time>2020-08-14T12:47:25Z</time>
      </trkpt>
      <trkpt lat="44.83052" lon="6.14339">
        <ele>1204.1887207031</ele>
        <time>2020-08-14T12:47:31Z</time>
      </trkpt>
      <trkpt lat="44.83064" lon="6.14334">
        <ele>1205.6306152344</ele>
        <time>2020-08-14T12:47:46Z</time>
      </trkpt>
      <trkpt lat="44.8307" lon="6.14327">
        <ele>1207.5532226562</ele>
        <time>2020-08-14T12:48:02Z</time>
      </trkpt>
      <trkpt lat="44.83095" lon="6.1432">
        <ele>1209.9562988281</ele>
        <time>2020-08-14T12:48:35Z</time>
      </trkpt>
      <trkpt lat="44.83097" lon="6.14315">
        <ele>1209.9562988281</ele>
        <time>2020-08-14T12:48:39Z</time>
      </trkpt>
      <trkpt lat="44.83113" lon="6.14309">
        <ele>1211.8791503906</ele>
        <time>2020-08-14T12:49:02Z</time>
      </trkpt>
      <trkpt lat="44.83122" lon="6.14291">
        <ele>1212.8405761719</ele>
        <time>2020-08-14T12:49:21Z</time>
      </trkpt>
      <trkpt lat="44.83133" lon="6.1429">
        <ele>1217.1665039062</ele>
        <time>2020-08-14T12:49:44Z</time>
      </trkpt>
      <trkpt lat="44.83146" lon="6.14279">
        <ele>1220.0502929688</ele>
        <time>2020-08-14T12:50:09Z</time>
      </trkpt>
      <trkpt lat="44.83154" lon="6.14261">
        <ele>1225.3374023438</ele>
        <time>2020-08-14T12:50:38Z</time>
      </trkpt>
      <trkpt lat="44.83163" lon="6.14252">
        <ele>1226.7795410156</ele>
        <time>2020-08-14T12:50:48Z</time>
      </trkpt>
      <trkpt lat="44.83172" lon="6.14251">
        <ele>1228.2216796875</ele>
        <time>2020-08-14T12:51:10Z</time>
      </trkpt>
      <trkpt lat="44.83181" lon="6.1424">
        <ele>1230.625</ele>
        <time>2020-08-14T12:51:45Z</time>
      </trkpt>
      <trkpt lat="44.83177" lon="6.14247">
        <ele>1232.0668945312</ele>
        <time>2020-08-14T12:52:04Z</time>
      </trkpt>
      <trkpt lat="44.83183" lon="6.14252">
        <ele>1234.4702148438</ele>
        <time>2020-08-14T12:52:40Z</time>
      </trkpt>
      <trkpt lat="44.83194" lon="6.14247">
        <ele>1234.9509277344</ele>
        <time>2020-08-14T12:53:06Z</time>
      </trkpt>
      <trkpt lat="44.83196" lon="6.14248">
        <ele>1235.4313964844</ele>
        <time>2020-08-14T12:53:29Z</time>
      </trkpt>
      <trkpt lat="44.83193" lon="6.14259">
        <ele>1236.8732910156</ele>
        <time>2020-08-14T12:53:52Z</time>
      </trkpt>
      <trkpt lat="44.83196" lon="6.14259">
        <ele>1236.8732910156</ele>
        <time>2020-08-14T12:54:07Z</time>
      </trkpt>
      <trkpt lat="44.83207" lon="6.14261">
        <ele>1236.3928222656</ele>
        <time>2020-08-14T12:54:31Z</time>
      </trkpt>
      <trkpt lat="44.83206" lon="6.1427">
        <ele>1237.8347167969</ele>
        <time>2020-08-14T12:54:50Z</time>
      </trkpt>
      <trkpt lat="44.83207" lon="6.14274">
        <ele>1236.8732910156</ele>
        <time>2020-08-14T12:55:06Z</time>
      </trkpt>
      <trkpt lat="44.83209" lon="6.14273">
        <ele>1236.3928222656</ele>
        <time>2020-08-14T12:55:11Z</time>
      </trkpt>
      <trkpt lat="44.83217" lon="6.14266">
        <ele>1235.912109375</ele>
        <time>2020-08-14T12:55:28Z</time>
      </trkpt>
      <trkpt lat="44.83216" lon="6.14281">
        <ele>1227.2602539062</ele>
        <time>2020-08-14T12:57:06Z</time>
      </trkpt>
      <trkpt lat="44.83223" lon="6.14276">
        <ele>1227.7407226562</ele>
        <time>2020-08-14T12:57:31Z</time>
      </trkpt>
      <trkpt lat="44.83234" lon="6.14273">
        <ele>1228.2216796875</ele>
        <time>2020-08-14T12:57:56Z</time>
      </trkpt>
      <trkpt lat="44.83234" lon="6.14276">
        <ele>1228.2216796875</ele>
        <time>2020-08-14T12:57:59Z</time>
      </trkpt>
      <trkpt lat="44.83233" lon="6.1429">
        <ele>1226.7795410156</ele>
        <time>2020-08-14T12:58:16Z</time>
      </trkpt>
      <trkpt lat="44.83231" lon="6.14297">
        <ele>1225.3374023438</ele>
        <time>2020-08-14T12:58:35Z</time>
      </trkpt>
      <trkpt lat="44.83231" lon="6.14317">
        <ele>1222.4536132812</ele>
        <time>2020-08-14T12:59:09Z</time>
      </trkpt>
      <trkpt lat="44.83239" lon="6.14305">
        <ele>1221.4921875</ele>
        <time>2020-08-14T12:59:43Z</time>
      </trkpt>
      <trkpt lat="44.83246" lon="6.14301">
        <ele>1221.9729003906</ele>
        <time>2020-08-14T12:59:52Z</time>
      </trkpt>
      <trkpt lat="44.83251" lon="6.14298">
        <ele>1222.9343261719</ele>
        <time>2020-08-14T13:00:09Z</time>
      </trkpt>
      <trkpt lat="44.83249" lon="6.14319">
        <ele>1224.8569335938</ele>
        <time>2020-08-14T13:00:30Z</time>
      </trkpt>
      <trkpt lat="44.83249" lon="6.1432">
        <ele>1226.7795410156</ele>
        <time>2020-08-14T13:01:05Z</time>
      </trkpt>
      <trkpt lat="44.83252" lon="6.14325">
        <ele>1227.7407226562</ele>
        <time>2020-08-14T13:03:37Z</time>
      </trkpt>
      <trkpt lat="44.83261" lon="6.14316">
        <ele>1226.7795410156</ele>
        <time>2020-08-14T13:03:51Z</time>
      </trkpt>
      <trkpt lat="44.83265" lon="6.14312">
        <ele>1220.0502929688</ele>
        <time>2020-08-14T13:04:46Z</time>
      </trkpt>
      <trkpt lat="44.83264" lon="6.14311">
        <ele>1216.6857910156</ele>
        <time>2020-08-14T13:05:26Z</time>
      </trkpt>
      <trkpt lat="44.83264" lon="6.14321">
        <ele>1216.205078125</ele>
        <time>2020-08-14T13:05:52Z</time>
      </trkpt>
      <trkpt lat="44.8327" lon="6.14331">
        <ele>1216.6857910156</ele>
        <time>2020-08-14T13:06:06Z</time>
      </trkpt>
      <trkpt lat="44.83278" lon="6.14327">
        <ele>1216.6857910156</ele>
        <time>2020-08-14T13:06:24Z</time>
      </trkpt>
      <trkpt lat="44.83277" lon="6.14336">
        <ele>1215.2438964844</ele>
        <time>2020-08-14T13:06:42Z</time>
      </trkpt>
      <trkpt lat="44.8328" lon="6.14326">
        <ele>1222.4536132812</ele>
        <time>2020-08-14T13:07:15Z</time>
      </trkpt>
      <trkpt lat="44.8328" lon="6.14334">
        <ele>1225.8181152344</ele>
        <time>2020-08-14T13:07:30Z</time>
      </trkpt>
      <trkpt lat="44.83289" lon="6.14343">
        <ele>1228.2216796875</ele>
        <time>2020-08-14T13:07:46Z</time>
      </trkpt>
      <trkpt lat="44.83292" lon="6.1434">
        <ele>1227.2602539062</ele>
        <time>2020-08-14T13:08:07Z</time>
      </trkpt>
      <trkpt lat="44.83286" lon="6.1434">
        <ele>1227.7407226562</ele>
        <time>2020-08-14T13:08:43Z</time>
      </trkpt>
      <trkpt lat="44.83288" lon="6.14343">
        <ele>1229.1828613281</ele>
        <time>2020-08-14T13:08:59Z</time>
      </trkpt>
      <trkpt lat="44.83302" lon="6.14338">
        <ele>1229.6635742188</ele>
        <time>2020-08-14T13:09:24Z</time>
      </trkpt>
      <trkpt lat="44.83309" lon="6.14332">
        <ele>1226.298828125</ele>
        <time>2020-08-14T13:09:57Z</time>
      </trkpt>
      <trkpt lat="44.83305" lon="6.14338">
        <ele>1222.9343261719</ele>
        <time>2020-08-14T13:10:29Z</time>
      </trkpt>
      <trkpt lat="44.83309" lon="6.14342">
        <ele>1223.8955078125</ele>
        <time>2020-08-14T13:10:34Z</time>
      </trkpt>
      <trkpt lat="44.83324" lon="6.14342">
        <ele>1227.2602539062</ele>
        <time>2020-08-14T13:10:51Z</time>
      </trkpt>
      <trkpt lat="44.83333" lon="6.14334">
        <ele>1231.5861816406</ele>
        <time>2020-08-14T13:11:09Z</time>
      </trkpt>
      <trkpt lat="44.83341" lon="6.14326">
        <ele>1235.4313964844</ele>
        <time>2020-08-14T13:11:22Z</time>
      </trkpt>
      <trkpt lat="44.83345" lon="6.14328">
        <ele>1235.912109375</ele>
        <time>2020-08-14T13:11:25Z</time>
      </trkpt>
      <trkpt lat="44.83346" lon="6.14316">
        <ele>1242.6413574219</ele>
        <time>2020-08-14T13:11:40Z</time>
      </trkpt>
      <trkpt lat="44.83346" lon="6.1429">
        <ele>1256.5803222656</ele>
        <time>2020-08-14T13:12:07Z</time>
      </trkpt>
      <trkpt lat="44.8335" lon="6.14282">
        <ele>1264.2709960938</ele>
        <time>2020-08-14T13:12:30Z</time>
      </trkpt>
      <trkpt lat="44.83351" lon="6.14285">
        <ele>1271.4807128906</ele>
        <time>2020-08-14T13:12:54Z</time>
      </trkpt>
      <trkpt lat="44.83346" lon="6.1428">
        <ele>1277.2490234375</ele>
        <time>2020-08-14T13:13:29Z</time>
      </trkpt>
      <trkpt lat="44.83349" lon="6.14273">
        <ele>1283.4973144531</ele>
        <time>2020-08-14T13:13:59Z</time>
      </trkpt>
      <trkpt lat="44.83344" lon="6.14249">
        <ele>1290.70703125</ele>
        <time>2020-08-14T13:14:42Z</time>
      </trkpt>
      <trkpt lat="44.83337" lon="6.14231">
        <ele>1296.4753417969</ele>
        <time>2020-08-14T13:15:03Z</time>
      </trkpt>
      <trkpt lat="44.83343" lon="6.14219">
        <ele>1315.2209472656</ele>
        <time>2020-08-14T13:17:31Z</time>
      </trkpt>
      <trkpt lat="44.83343" lon="6.14209">
        <ele>1318.1047363281</ele>
        <time>2020-08-14T13:18:08Z</time>
      </trkpt>
      <trkpt lat="44.83344" lon="6.14218">
        <ele>1325.3146972656</ele>
        <time>2020-08-14T13:20:08Z</time>
      </trkpt>
      <trkpt lat="44.83348" lon="6.14219">
        <ele>1328.1987304688</ele>
        <time>2020-08-14T13:20:24Z</time>
      </trkpt>
      <trkpt lat="44.8335" lon="6.1422">
        <ele>1329.640625</ele>
        <time>2020-08-14T13:20:31Z</time>
      </trkpt>
      <trkpt lat="44.83355" lon="6.1422">
        <ele>1332.0439453125</ele>
        <time>2020-08-14T13:20:44Z</time>
      </trkpt>
      <trkpt lat="44.83365" lon="6.1421">
        <ele>1336.3698730469</ele>
        <time>2020-08-14T13:21:11Z</time>
      </trkpt>
      <trkpt lat="44.8337" lon="6.14193">
        <ele>1337.3310546875</ele>
        <time>2020-08-14T13:21:25Z</time>
      </trkpt>
      <trkpt lat="44.83379" lon="6.14185">
        <ele>1338.7731933594</ele>
        <time>2020-08-14T13:21:44Z</time>
      </trkpt>
      <trkpt lat="44.83389" lon="6.14153">
        <ele>1340.6958007812</ele>
        <time>2020-08-14T13:22:07Z</time>
      </trkpt>
      <trkpt lat="44.83391" lon="6.14151">
        <ele>1340.6958007812</ele>
        <time>2020-08-14T13:22:10Z</time>
      </trkpt>
      <trkpt lat="44.83405" lon="6.14138">
        <ele>1344.060546875</ele>
        <time>2020-08-14T13:22:30Z</time>
      </trkpt>
      <trkpt lat="44.83405" lon="6.14138">
        <ele>1345.5024414062</ele>
        <time>2020-08-14T13:22:48Z</time>
      </trkpt>
      <trkpt lat="44.83406" lon="6.1414">
        <ele>1345.5024414062</ele>
        <time>2020-08-14T13:23:45Z</time>
      </trkpt>
      <trkpt lat="44.83413" lon="6.14142">
        <ele>1343.0991210938</ele>
        <time>2020-08-14T13:24:00Z</time>
      </trkpt>
      <trkpt lat="44.83419" lon="6.14139">
        <ele>1340.2153320312</ele>
        <time>2020-08-14T13:24:24Z</time>
      </trkpt>
      <trkpt lat="44.83428" lon="6.14127">
        <ele>1337.3310546875</ele>
        <time>2020-08-14T13:24:39Z</time>
      </trkpt>
      <trkpt lat="44.83432" lon="6.14123">
        <ele>1335.8891601562</ele>
        <time>2020-08-14T13:24:45Z</time>
      </trkpt>
      <trkpt lat="44.83438" lon="6.14115">
        <ele>1333.0051269531</ele>
        <time>2020-08-14T13:25:01Z</time>
      </trkpt>
      <trkpt lat="44.83453" lon="6.14117">
        <ele>1330.6020507812</ele>
        <time>2020-08-14T13:25:17Z</time>
      </trkpt>
      <trkpt lat="44.8346" lon="6.14108">
        <ele>1330.1213378906</ele>
        <time>2020-08-14T13:25:33Z</time>
      </trkpt>
      <trkpt lat="44.83472" lon="6.14103">
        <ele>1330.1213378906</ele>
        <time>2020-08-14T13:25:43Z</time>
      </trkpt>
      <trkpt lat="44.83474" lon="6.14094">
        <ele>1330.1213378906</ele>
        <time>2020-08-14T13:25:49Z</time>
      </trkpt>
      <trkpt lat="44.83478" lon="6.14075">
        <ele>1329.1599121094</ele>
        <time>2020-08-14T13:26:05Z</time>
      </trkpt>
      <trkpt lat="44.83481" lon="6.14076">
        <ele>1328.6794433594</ele>
        <time>2020-08-14T13:26:14Z</time>
      </trkpt>
      <trkpt lat="44.83488" lon="6.14068">
        <ele>1329.640625</ele>
        <time>2020-08-14T13:26:27Z</time>
      </trkpt>
      <trkpt lat="44.83493" lon="6.1406">
        <ele>1330.6020507812</ele>
        <time>2020-08-14T13:26:44Z</time>
      </trkpt>
      <trkpt lat="44.83492" lon="6.14065">
        <ele>1333.0051269531</ele>
        <time>2020-08-14T13:27:19Z</time>
      </trkpt>
      <trkpt lat="44.8349" lon="6.14071">
        <ele>1334.447265625</ele>
        <time>2020-08-14T13:27:46Z</time>
      </trkpt>
      <trkpt lat="44.83491" lon="6.14084">
        <ele>1337.8117675781</ele>
        <time>2020-08-14T13:28:12Z</time>
      </trkpt>
      <trkpt lat="44.83496" lon="6.14083">
        <ele>1340.2153320312</ele>
        <time>2020-08-14T13:28:33Z</time>
      </trkpt>
      <trkpt lat="44.83505" lon="6.1407">
        <ele>1340.6958007812</ele>
        <time>2020-08-14T13:29:04Z</time>
      </trkpt>
      <trkpt lat="44.83515" lon="6.14066">
        <ele>1345.9831542969</ele>
        <time>2020-08-14T13:29:26Z</time>
      </trkpt>
      <trkpt lat="44.83518" lon="6.1405">
        <ele>1349.8283691406</ele>
        <time>2020-08-14T13:29:51Z</time>
      </trkpt>
      <trkpt lat="44.83516" lon="6.14047">
        <ele>1351.7509765625</ele>
        <time>2020-08-14T13:30:17Z</time>
      </trkpt>
      <trkpt lat="44.83515" lon="6.14044">
        <ele>1352.2314453125</ele>
        <time>2020-08-14T13:30:36Z</time>
      </trkpt>
      <trkpt lat="44.83518" lon="6.14045">
        <ele>1353.1928710938</ele>
        <time>2020-08-14T13:30:58Z</time>
      </trkpt>
      <trkpt lat="44.83522" lon="6.14064">
        <ele>1355.5961914062</ele>
        <time>2020-08-14T13:31:17Z</time>
      </trkpt>
      <trkpt lat="44.83525" lon="6.14069">
        <ele>1357.0383300781</ele>
        <time>2020-08-14T13:31:31Z</time>
      </trkpt>
      <trkpt lat="44.83534" lon="6.14041">
        <ele>1360.4028320312</ele>
        <time>2020-08-14T13:31:56Z</time>
      </trkpt>
      <trkpt lat="44.83542" lon="6.14034">
        <ele>1363.2868652344</ele>
        <time>2020-08-14T13:32:15Z</time>
      </trkpt>
      <trkpt lat="44.83556" lon="6.14021">
        <ele>1367.6125488281</ele>
        <time>2020-08-14T13:32:37Z</time>
      </trkpt>
      <trkpt lat="44.83568" lon="6.14005">
        <ele>1371.4577636719</ele>
        <time>2020-08-14T13:32:59Z</time>
      </trkpt>
      <trkpt lat="44.83573" lon="6.13998">
        <ele>1375.7839355469</ele>
        <time>2020-08-14T13:33:12Z</time>
      </trkpt>
      <trkpt lat="44.83586" lon="6.13996">
        <ele>1381.5517578125</ele>
        <time>2020-08-14T13:33:34Z</time>
      </trkpt>
      <trkpt lat="44.83594" lon="6.13995">
        <ele>1384.9165039062</ele>
        <time>2020-08-14T13:33:56Z</time>
      </trkpt>
      <trkpt lat="44.8359" lon="6.14001">
        <ele>1386.3583984375</ele>
        <time>2020-08-14T13:34:09Z</time>
      </trkpt>
      <trkpt lat="44.83583" lon="6.14015">
        <ele>1391.6457519531</ele>
        <time>2020-08-14T13:34:29Z</time>
      </trkpt>
      <trkpt lat="44.83581" lon="6.14015">
        <ele>1394.5295410156</ele>
        <time>2020-08-14T13:35:08Z</time>
      </trkpt>
      <trkpt lat="44.83584" lon="6.14013">
        <ele>1393.0876464844</ele>
        <time>2020-08-14T13:35:30Z</time>
      </trkpt>
      <trkpt lat="44.83585" lon="6.14027">
        <ele>1389.2424316406</ele>
        <time>2020-08-14T13:35:43Z</time>
      </trkpt>
      <trkpt lat="44.83584" lon="6.14026">
        <ele>1386.8388671875</ele>
        <time>2020-08-14T13:36:03Z</time>
      </trkpt>
      <trkpt lat="44.8358" lon="6.14039">
        <ele>1385.3969726562</ele>
        <time>2020-08-14T13:36:16Z</time>
      </trkpt>
      <trkpt lat="44.8358" lon="6.14041">
        <ele>1383.955078125</ele>
        <time>2020-08-14T13:36:41Z</time>
      </trkpt>
      <trkpt lat="44.8358" lon="6.14052">
        <ele>1375.7839355469</ele>
        <time>2020-08-14T13:38:39Z</time>
      </trkpt>
      <trkpt lat="44.83572" lon="6.14073">
        <ele>1376.7453613281</ele>
        <time>2020-08-14T13:38:58Z</time>
      </trkpt>
      <trkpt lat="44.83573" lon="6.14076">
        <ele>1376.7453613281</ele>
        <time>2020-08-14T13:39:02Z</time>
      </trkpt>
      <trkpt lat="44.83569" lon="6.14088">
        <ele>1379.1484375</ele>
        <time>2020-08-14T13:39:16Z</time>
      </trkpt>
      <trkpt lat="44.83558" lon="6.14109">
        <ele>1383.955078125</ele>
        <time>2020-08-14T13:39:36Z</time>
      </trkpt>
      <trkpt lat="44.83557" lon="6.14112">
        <ele>1384.9165039062</ele>
        <time>2020-08-14T13:39:41Z</time>
      </trkpt>
      <trkpt lat="44.8355" lon="6.14126">
        <ele>1391.6457519531</ele>
        <time>2020-08-14T13:39:59Z</time>
      </trkpt>
      <trkpt lat="44.83546" lon="6.14145">
        <ele>1397.8942871094</ele>
        <time>2020-08-14T13:40:19Z</time>
      </trkpt>
      <trkpt lat="44.83536" lon="6.1417">
        <ele>1401.2587890625</ele>
        <time>2020-08-14T13:40:38Z</time>
      </trkpt>
      <trkpt lat="44.83529" lon="6.14176">
        <ele>1404.6235351562</ele>
        <time>2020-08-14T13:40:52Z</time>
      </trkpt>
      <trkpt lat="44.83516" lon="6.14186">
        <ele>1405.1042480469</ele>
        <time>2020-08-14T13:41:15Z</time>
      </trkpt>
      <trkpt lat="44.83513" lon="6.14178">
        <ele>1407.5075683594</ele>
        <time>2020-08-14T13:42:08Z</time>
      </trkpt>
      <trkpt lat="44.83512" lon="6.14176">
        <ele>1409.4301757812</ele>
        <time>2020-08-14T13:43:54Z</time>
      </trkpt>
      <trkpt lat="44.83513" lon="6.14179">
        <ele>1409.4301757812</ele>
        <time>2020-08-14T13:49:08Z</time>
      </trkpt>
      <trkpt lat="44.83511" lon="6.14184">
        <ele>1404.6235351562</ele>
        <time>2020-08-14T13:51:45Z</time>
      </trkpt>
      <trkpt lat="44.83512" lon="6.14184">
        <ele>1404.6235351562</ele>
        <time>2020-08-14T13:54:42Z</time>
      </trkpt>
      <trkpt lat="44.83513" lon="6.14187">
        <ele>1406.0654296875</ele>
        <time>2020-08-14T13:55:02Z</time>
      </trkpt>
      <trkpt lat="44.83513" lon="6.14186">
        <ele>1405.5849609375</ele>
        <time>2020-08-14T13:55:28Z</time>
      </trkpt>
      <trkpt lat="44.83514" lon="6.14186">
        <ele>1405.5849609375</ele>
        <time>2020-08-14T13:56:14Z</time>
      </trkpt>
      <trkpt lat="44.83513" lon="6.14184">
        <ele>1406.0654296875</ele>
        <time>2020-08-14T13:56:36Z</time>
      </trkpt>
      <trkpt lat="44.83503" lon="6.14193">
        <ele>1404.6235351562</ele>
        <time>2020-08-14T13:57:30Z</time>
      </trkpt>
      <trkpt lat="44.83497" lon="6.14201">
        <ele>1405.1042480469</ele>
        <time>2020-08-14T13:57:39Z</time>
      </trkpt>
      <trkpt lat="44.8349" lon="6.1421">
        <ele>1403.1813964844</ele>
        <time>2020-08-14T13:57:53Z</time>
      </trkpt>
      <trkpt lat="44.83487" lon="6.14235">
        <ele>1402.2199707031</ele>
        <time>2020-08-14T13:58:10Z</time>
      </trkpt>
      <trkpt lat="44.83484" lon="6.14253">
        <ele>1401.2587890625</ele>
        <time>2020-08-14T13:58:26Z</time>
      </trkpt>
      <trkpt lat="44.83478" lon="6.14261">
        <ele>1401.2587890625</ele>
        <time>2020-08-14T13:58:39Z</time>
      </trkpt>
      <trkpt lat="44.83475" lon="6.14278">
        <ele>1400.2976074219</ele>
        <time>2020-08-14T13:58:54Z</time>
      </trkpt>
      <trkpt lat="44.83477" lon="6.14288">
        <ele>1399.3361816406</ele>
        <time>2020-08-14T13:59:09Z</time>
      </trkpt>
      <trkpt lat="44.83485" lon="6.14287">
        <ele>1397.4135742188</ele>
        <time>2020-08-14T13:59:27Z</time>
      </trkpt>
      <trkpt lat="44.83495" lon="6.14289">
        <ele>1397.8942871094</ele>
        <time>2020-08-14T13:59:44Z</time>
      </trkpt>
      <trkpt lat="44.83502" lon="6.14285">
        <ele>1398.85546875</ele>
        <time>2020-08-14T14:00:00Z</time>
      </trkpt>
      <trkpt lat="44.83509" lon="6.14275">
        <ele>1400.7780761719</ele>
        <time>2020-08-14T14:00:18Z</time>
      </trkpt>
      <trkpt lat="44.83517" lon="6.1427">
        <ele>1403.662109375</ele>
        <time>2020-08-14T14:00:32Z</time>
      </trkpt>
      <trkpt lat="44.83523" lon="6.14262">
        <ele>1407.5075683594</ele>
        <time>2020-08-14T14:00:51Z</time>
      </trkpt>
      <trkpt lat="44.8353" lon="6.14256">
        <ele>1409.4301757812</ele>
        <time>2020-08-14T14:01:10Z</time>
      </trkpt>
      <trkpt lat="44.83531" lon="6.14254">
        <ele>1409.4301757812</ele>
        <time>2020-08-14T14:01:40Z</time>
      </trkpt>
      <trkpt lat="44.83539" lon="6.1426">
        <ele>1410.8720703125</ele>
        <time>2020-08-14T14:02:15Z</time>
      </trkpt>
      <trkpt lat="44.83549" lon="6.1425">
        <ele>1413.275390625</ele>
        <time>2020-08-14T14:02:36Z</time>
      </trkpt>
      <trkpt lat="44.83546" lon="6.14251">
        <ele>1416.1591796875</ele>
        <time>2020-08-14T14:02:58Z</time>
      </trkpt>
      <trkpt lat="44.83534" lon="6.14266">
        <ele>1425.7724609375</ele>
        <time>2020-08-14T14:03:23Z</time>
      </trkpt>
      <trkpt lat="44.83528" lon="6.1427">
        <ele>1431.0598144531</ele>
        <time>2020-08-14T14:03:38Z</time>
      </trkpt>
      <trkpt lat="44.83526" lon="6.14275">
        <ele>1436.3471679688</ele>
        <time>2020-08-14T14:04:11Z</time>
      </trkpt>
      <trkpt lat="44.83528" lon="6.14278">
        <ele>1440.6728515625</ele>
        <time>2020-08-14T14:05:13Z</time>
      </trkpt>
      <trkpt lat="44.83523" lon="6.14282">
        <ele>1443.5568847656</ele>
        <time>2020-08-14T14:05:31Z</time>
      </trkpt>
      <trkpt lat="44.83531" lon="6.14278">
        <ele>1444.9987792969</ele>
        <time>2020-08-14T14:05:45Z</time>
      </trkpt>
      <trkpt lat="44.83543" lon="6.14276">
        <ele>1445.4794921875</ele>
        <time>2020-08-14T14:06:07Z</time>
      </trkpt>
      <trkpt lat="44.83552" lon="6.14273">
        <ele>1446.9213867188</ele>
        <time>2020-08-14T14:06:29Z</time>
      </trkpt>
      <trkpt lat="44.83559" lon="6.14268">
        <ele>1447.8828125</ele>
        <time>2020-08-14T14:06:43Z</time>
      </trkpt>
      <trkpt lat="44.83571" lon="6.14267">
        <ele>1450.2861328125</ele>
        <time>2020-08-14T14:07:05Z</time>
      </trkpt>
      <trkpt lat="44.83566" lon="6.14276">
        <ele>1449.8054199219</ele>
        <time>2020-08-14T14:07:26Z</time>
      </trkpt>
      <trkpt lat="44.83552" lon="6.14288">
        <ele>1455.0927734375</ele>
        <time>2020-08-14T14:07:48Z</time>
      </trkpt>
      <trkpt lat="44.83553" lon="6.14292">
        <ele>1458.9379882812</ele>
        <time>2020-08-14T14:08:05Z</time>
      </trkpt>
      <trkpt lat="44.83561" lon="6.14289">
        <ele>1461.8220214844</ele>
        <time>2020-08-14T14:08:20Z</time>
      </trkpt>
      <trkpt lat="44.83569" lon="6.14288">
        <ele>1463.2639160156</ele>
        <time>2020-08-14T14:08:40Z</time>
      </trkpt>
      <trkpt lat="44.8357" lon="6.14291">
        <ele>1462.783203125</ele>
        <time>2020-08-14T14:09:26Z</time>
      </trkpt>
      <trkpt lat="44.83573" lon="6.1429">
        <ele>1462.3024902344</ele>
        <time>2020-08-14T14:10:10Z</time>
      </trkpt>
      <trkpt lat="44.83585" lon="6.14287">
        <ele>1462.3024902344</ele>
        <time>2020-08-14T14:10:30Z</time>
      </trkpt>
      <trkpt lat="44.83601" lon="6.14279">
        <ele>1461.8220214844</ele>
        <time>2020-08-14T14:10:52Z</time>
      </trkpt>
      <trkpt lat="44.83602" lon="6.14272">
        <ele>1461.8220214844</ele>
        <time>2020-08-14T14:11:01Z</time>
      </trkpt>
      <trkpt lat="44.83603" lon="6.14269">
        <ele>1462.3024902344</ele>
        <time>2020-08-14T14:11:03Z</time>
      </trkpt>
      <trkpt lat="44.83616" lon="6.14261">
        <ele>1461.8220214844</ele>
        <time>2020-08-14T14:11:21Z</time>
      </trkpt>
      <trkpt lat="44.83624" lon="6.14258">
        <ele>1462.783203125</ele>
        <time>2020-08-14T14:11:31Z</time>
      </trkpt>
      <trkpt lat="44.83632" lon="6.1426">
        <ele>1461.8220214844</ele>
        <time>2020-08-14T14:11:48Z</time>
      </trkpt>
      <trkpt lat="44.83639" lon="6.14261">
        <ele>1462.783203125</ele>
        <time>2020-08-14T14:12:05Z</time>
      </trkpt>
      <trkpt lat="44.83652" lon="6.14251">
        <ele>1464.7058105469</ele>
        <time>2020-08-14T14:12:22Z</time>
      </trkpt>
      <trkpt lat="44.83658" lon="6.14243">
        <ele>1471.4350585938</ele>
        <time>2020-08-14T14:12:38Z</time>
      </trkpt>
      <trkpt lat="44.83661" lon="6.14246">
        <ele>1475.7609863281</ele>
        <time>2020-08-14T14:12:56Z</time>
      </trkpt>
      <trkpt lat="44.8366" lon="6.14245">
        <ele>1476.2416992188</ele>
        <time>2020-08-14T14:14:21Z</time>
      </trkpt>
      <trkpt lat="44.83668" lon="6.14238">
        <ele>1478.6450195312</ele>
        <time>2020-08-14T14:15:11Z</time>
      </trkpt>
      <trkpt lat="44.83672" lon="6.14237">
        <ele>1481.5288085938</ele>
        <time>2020-08-14T14:15:31Z</time>
      </trkpt>
      <trkpt lat="44.83685" lon="6.1423">
        <ele>1484.4130859375</ele>
        <time>2020-08-14T14:15:52Z</time>
      </trkpt>
      <trkpt lat="44.83697" lon="6.14222">
        <ele>1486.3356933594</ele>
        <time>2020-08-14T14:16:13Z</time>
      </trkpt>
      <trkpt lat="44.83709" lon="6.14224">
        <ele>1490.1809082031</ele>
        <time>2020-08-14T14:16:38Z</time>
      </trkpt>
      <trkpt lat="44.83696" lon="6.14235">
        <ele>1494.9873046875</ele>
        <time>2020-08-14T14:16:58Z</time>
      </trkpt>
      <trkpt lat="44.83686" lon="6.1424">
        <ele>1499.3132324219</ele>
        <time>2020-08-14T14:17:16Z</time>
      </trkpt>
      <trkpt lat="44.83678" lon="6.14249">
        <ele>1503.1586914062</ele>
        <time>2020-08-14T14:17:32Z</time>
      </trkpt>
      <trkpt lat="44.83674" lon="6.14262">
        <ele>1510.3684082031</ele>
        <time>2020-08-14T14:17:58Z</time>
      </trkpt>
      <trkpt lat="44.83677" lon="6.14261">
        <ele>1511.3298339844</ele>
        <time>2020-08-14T14:18:18Z</time>
      </trkpt>
      <trkpt lat="44.83691" lon="6.14253">
        <ele>1513.2524414062</ele>
        <time>2020-08-14T14:18:39Z</time>
      </trkpt>
      <trkpt lat="44.83694" lon="6.14255">
        <ele>1516.1364746094</ele>
        <time>2020-08-14T14:19:20Z</time>
      </trkpt>
      <trkpt lat="44.83705" lon="6.14246">
        <ele>1517.5783691406</ele>
        <time>2020-08-14T14:19:49Z</time>
      </trkpt>
      <trkpt lat="44.83713" lon="6.14238">
        <ele>1519.9816894531</ele>
        <time>2020-08-14T14:20:15Z</time>
      </trkpt>
      <trkpt lat="44.83728" lon="6.14237">
        <ele>1521.4235839844</ele>
        <time>2020-08-14T14:20:38Z</time>
      </trkpt>
      <trkpt lat="44.83739" lon="6.14229">
        <ele>1525.7495117188</ele>
        <time>2020-08-14T14:21:04Z</time>
      </trkpt>
      <trkpt lat="44.83749" lon="6.14214">
        <ele>1531.998046875</ele>
        <time>2020-08-14T14:21:27Z</time>
      </trkpt>
      <trkpt lat="44.83757" lon="6.14202">
        <ele>1537.7661132812</ele>
        <time>2020-08-14T14:21:43Z</time>
      </trkpt>
      <trkpt lat="44.83767" lon="6.14198">
        <ele>1540.6499023438</ele>
        <time>2020-08-14T14:22:05Z</time>
      </trkpt>
      <trkpt lat="44.83778" lon="6.1419">
        <ele>1542.0920410156</ele>
        <time>2020-08-14T14:22:27Z</time>
      </trkpt>
      <trkpt lat="44.83785" lon="6.14188">
        <ele>1543.5339355469</ele>
        <time>2020-08-14T14:22:44Z</time>
      </trkpt>
      <trkpt lat="44.83795" lon="6.14182">
        <ele>1543.0532226562</ele>
        <time>2020-08-14T14:23:10Z</time>
      </trkpt>
      <trkpt lat="44.83796" lon="6.14186">
        <ele>1542.5727539062</ele>
        <time>2020-08-14T14:23:29Z</time>
      </trkpt>
      <trkpt lat="44.83796" lon="6.1419">
        <ele>1542.0920410156</ele>
        <time>2020-08-14T14:24:56Z</time>
      </trkpt>
      <trkpt lat="44.83794" lon="6.142">
        <ele>1542.0920410156</ele>
        <time>2020-08-14T14:25:07Z</time>
      </trkpt>
      <trkpt lat="44.83788" lon="6.14218">
        <ele>1547.3791503906</ele>
        <time>2020-08-14T14:25:29Z</time>
      </trkpt>
      <trkpt lat="44.83781" lon="6.14237">
        <ele>1553.6279296875</ele>
        <time>2020-08-14T14:25:54Z</time>
      </trkpt>
      <trkpt lat="44.83769" lon="6.14249">
        <ele>1561.318359375</ele>
        <time>2020-08-14T14:26:16Z</time>
      </trkpt>
      <trkpt lat="44.83754" lon="6.1426">
        <ele>1567.0864257812</ele>
        <time>2020-08-14T14:26:42Z</time>
      </trkpt>
      <trkpt lat="44.83762" lon="6.14267">
        <ele>1569.4897460938</ele>
        <time>2020-08-14T14:27:04Z</time>
      </trkpt>
      <trkpt lat="44.83769" lon="6.14257">
        <ele>1572.8542480469</ele>
        <time>2020-08-14T14:27:21Z</time>
      </trkpt>
      <trkpt lat="44.83772" lon="6.14256">
        <ele>1573.3349609375</ele>
        <time>2020-08-14T14:27:42Z</time>
      </trkpt>
      <trkpt lat="44.83781" lon="6.14253">
        <ele>1573.3349609375</ele>
        <time>2020-08-14T14:28:03Z</time>
      </trkpt>
      <trkpt lat="44.83791" lon="6.14239">
        <ele>1577.1801757812</ele>
        <time>2020-08-14T14:28:28Z</time>
      </trkpt>
      <trkpt lat="44.83787" lon="6.14234">
        <ele>1579.5832519531</ele>
        <time>2020-08-14T14:28:57Z</time>
      </trkpt>
      <trkpt lat="44.83791" lon="6.14237">
        <ele>1577.1801757812</ele>
        <time>2020-08-14T14:31:46Z</time>
      </trkpt>
      <trkpt lat="44.8379" lon="6.14237">
        <ele>1577.1801757812</ele>
        <time>2020-08-14T14:33:02Z</time>
      </trkpt>
      <trkpt lat="44.83788" lon="6.14237">
        <ele>1574.7768554688</ele>
        <time>2020-08-14T14:34:34Z</time>
      </trkpt>
      <trkpt lat="44.83793" lon="6.14238">
        <ele>1565.1638183594</ele>
        <time>2020-08-14T14:43:45Z</time>
      </trkpt>
      <trkpt lat="44.83791" lon="6.14239">
        <ele>1566.125</ele>
        <time>2020-08-14T14:44:07Z</time>
      </trkpt>
      <trkpt lat="44.83805" lon="6.14235">
        <ele>1566.6057128906</ele>
        <time>2020-08-14T14:45:14Z</time>
      </trkpt>
      <trkpt lat="44.83817" lon="6.1423">
        <ele>1568.0476074219</ele>
        <time>2020-08-14T14:45:36Z</time>
      </trkpt>
      <trkpt lat="44.83829" lon="6.14228">
        <ele>1568.5283203125</ele>
        <time>2020-08-14T14:46:03Z</time>
      </trkpt>
      <trkpt lat="44.83836" lon="6.14224">
        <ele>1569.0090332031</ele>
        <time>2020-08-14T14:46:27Z</time>
      </trkpt>
      <trkpt lat="44.83847" lon="6.14215">
        <ele>1575.2573242188</ele>
        <time>2020-08-14T14:46:57Z</time>
      </trkpt>
      <trkpt lat="44.83859" lon="6.14218">
        <ele>1581.0256347656</ele>
        <time>2020-08-14T14:47:23Z</time>
      </trkpt>
      <trkpt lat="44.83865" lon="6.14211">
        <ele>1582.4675292969</ele>
        <time>2020-08-14T14:47:38Z</time>
      </trkpt>
      <trkpt lat="44.83883" lon="6.14201">
        <ele>1585.3513183594</ele>
        <time>2020-08-14T14:48:02Z</time>
      </trkpt>
      <trkpt lat="44.83901" lon="6.14196">
        <ele>1586.7932128906</ele>
        <time>2020-08-14T14:48:26Z</time>
      </trkpt>
      <trkpt lat="44.83916" lon="6.14194">
        <ele>1586.7932128906</ele>
        <time>2020-08-14T14:48:49Z</time>
      </trkpt>
      <trkpt lat="44.83931" lon="6.1419">
        <ele>1590.6384277344</ele>
        <time>2020-08-14T14:49:14Z</time>
      </trkpt>
      <trkpt lat="44.83945" lon="6.14187">
        <ele>1592.5612792969</ele>
        <time>2020-08-14T14:49:37Z</time>
      </trkpt>
      <trkpt lat="44.83958" lon="6.14181">
        <ele>1594.4836425781</ele>
        <time>2020-08-14T14:49:56Z</time>
      </trkpt>
      <trkpt lat="44.8397" lon="6.14172">
        <ele>1599.2905273438</ele>
        <time>2020-08-14T14:50:20Z</time>
      </trkpt>
      <trkpt lat="44.83986" lon="6.14171">
        <ele>1601.6938476562</ele>
        <time>2020-08-14T14:50:44Z</time>
      </trkpt>
      <trkpt lat="44.83985" lon="6.14167">
        <ele>1603.1357421875</ele>
        <time>2020-08-14T14:51:11Z</time>
      </trkpt>
      <trkpt lat="44.83977" lon="6.14175">
        <ele>1607.9423828125</ele>
        <time>2020-08-14T14:51:57Z</time>
      </trkpt>
      <trkpt lat="44.83973" lon="6.1418">
        <ele>1610.826171875</ele>
        <time>2020-08-14T14:52:17Z</time>
      </trkpt>
      <trkpt lat="44.83969" lon="6.14189">
        <ele>1611.7875976562</ele>
        <time>2020-08-14T14:52:46Z</time>
      </trkpt>
      <trkpt lat="44.83957" lon="6.14209">
        <ele>1615.15234375</ele>
        <time>2020-08-14T14:53:09Z</time>
      </trkpt>
      <trkpt lat="44.83947" lon="6.14226">
        <ele>1618.0361328125</ele>
        <time>2020-08-14T14:53:30Z</time>
      </trkpt>
      <trkpt lat="44.83935" lon="6.14242">
        <ele>1623.3234863281</ele>
        <time>2020-08-14T14:53:54Z</time>
      </trkpt>
      <trkpt lat="44.83921" lon="6.14256">
        <ele>1626.2072753906</ele>
        <time>2020-08-14T14:54:16Z</time>
      </trkpt>
      <trkpt lat="44.83915" lon="6.14262">
        <ele>1627.6491699219</ele>
        <time>2020-08-14T14:54:33Z</time>
      </trkpt>
      <trkpt lat="44.83913" lon="6.14265">
        <ele>1627.1687011719</ele>
        <time>2020-08-14T14:55:03Z</time>
      </trkpt>
      <trkpt lat="44.83903" lon="6.14272">
        <ele>1628.6108398438</ele>
        <time>2020-08-14T14:58:32Z</time>
      </trkpt>
      <trkpt lat="44.83903" lon="6.14277">
        <ele>1632.9365234375</ele>
        <time>2020-08-14T14:58:50Z</time>
      </trkpt>
      <trkpt lat="44.83913" lon="6.14276">
        <ele>1635.8205566406</ele>
        <time>2020-08-14T14:59:13Z</time>
      </trkpt>
      <trkpt lat="44.83924" lon="6.14275">
        <ele>1636.3012695312</ele>
        <time>2020-08-14T14:59:37Z</time>
      </trkpt>
      <trkpt lat="44.83933" lon="6.14275">
        <ele>1637.2624511719</ele>
        <time>2020-08-14T14:59:59Z</time>
      </trkpt>
      <trkpt lat="44.83944" lon="6.14272">
        <ele>1639.1850585938</ele>
        <time>2020-08-14T15:00:22Z</time>
      </trkpt>
      <trkpt lat="44.8396" lon="6.14268">
        <ele>1640.626953125</ele>
        <time>2020-08-14T15:00:45Z</time>
      </trkpt>
      <trkpt lat="44.83968" lon="6.14262">
        <ele>1641.1076660156</ele>
        <time>2020-08-14T15:01:01Z</time>
      </trkpt>
      <trkpt lat="44.83973" lon="6.14256">
        <ele>1645.9145507812</ele>
        <time>2020-08-14T15:01:26Z</time>
      </trkpt>
      <trkpt lat="44.83974" lon="6.14261">
        <ele>1648.3176269531</ele>
        <time>2020-08-14T15:02:39Z</time>
      </trkpt>
      <trkpt lat="44.83966" lon="6.14278">
        <ele>1652.6435546875</ele>
        <time>2020-08-14T15:03:02Z</time>
      </trkpt>
      <trkpt lat="44.83968" lon="6.14287">
        <ele>1655.5275878906</ele>
        <time>2020-08-14T15:03:19Z</time>
      </trkpt>
      <trkpt lat="44.83982" lon="6.1428">
        <ele>1658.4113769531</ele>
        <time>2020-08-14T15:03:46Z</time>
      </trkpt>
      <trkpt lat="44.83984" lon="6.14283">
        <ele>1661.2956542969</ele>
        <time>2020-08-14T15:04:40Z</time>
      </trkpt>
      <trkpt lat="44.83977" lon="6.14296">
        <ele>1667.0634765625</ele>
        <time>2020-08-14T15:05:23Z</time>
      </trkpt>
      <trkpt lat="44.83986" lon="6.14293">
        <ele>1670.4279785156</ele>
        <time>2020-08-14T15:05:49Z</time>
      </trkpt>
      <trkpt lat="44.83999" lon="6.14297">
        <ele>1671.3891601562</ele>
        <time>2020-08-14T15:06:19Z</time>
      </trkpt>
      <trkpt lat="44.84001" lon="6.14296">
        <ele>1673.7924804688</ele>
        <time>2020-08-14T15:07:33Z</time>
      </trkpt>
      <trkpt lat="44.84005" lon="6.14296">
        <ele>1674.2731933594</ele>
        <time>2020-08-14T15:08:50Z</time>
      </trkpt>
      <trkpt lat="44.84005" lon="6.14295">
        <ele>1674.2731933594</ele>
        <time>2020-08-14T15:09:41Z</time>
      </trkpt>
      <trkpt lat="44.84014" lon="6.14291">
        <ele>1676.1960449219</ele>
        <time>2020-08-14T15:12:38Z</time>
      </trkpt>
      <trkpt lat="44.84023" lon="6.14288">
        <ele>1677.1574707031</ele>
        <time>2020-08-14T15:12:53Z</time>
      </trkpt>
      <trkpt lat="44.84034" lon="6.14286">
        <ele>1679.560546875</ele>
        <time>2020-08-14T15:13:11Z</time>
      </trkpt>
      <trkpt lat="44.84044" lon="6.14282">
        <ele>1685.3283691406</ele>
        <time>2020-08-14T15:13:31Z</time>
      </trkpt>
      <trkpt lat="44.84055" lon="6.14273">
        <ele>1688.2124023438</ele>
        <time>2020-08-14T15:13:52Z</time>
      </trkpt>
      <trkpt lat="44.84066" lon="6.14272">
        <ele>1686.2897949219</ele>
        <time>2020-08-14T15:14:12Z</time>
      </trkpt>
      <trkpt lat="44.84075" lon="6.1427">
        <ele>1690.1350097656</ele>
        <time>2020-08-14T15:14:38Z</time>
      </trkpt>
      <trkpt lat="44.84065" lon="6.1428">
        <ele>1693.4997558594</ele>
        <time>2020-08-14T15:14:58Z</time>
      </trkpt>
      <trkpt lat="44.84065" lon="6.14287">
        <ele>1696.8642578125</ele>
        <time>2020-08-14T15:15:20Z</time>
      </trkpt>
      <trkpt lat="44.84084" lon="6.14287">
        <ele>1700.7094726562</ele>
        <time>2020-08-14T15:15:53Z</time>
      </trkpt>
      <trkpt lat="44.84088" lon="6.14286">
        <ele>1701.6708984375</ele>
        <time>2020-08-14T15:16:06Z</time>
      </trkpt>
      <trkpt lat="44.8408" lon="6.14294">
        <ele>1703.1127929688</ele>
        <time>2020-08-14T15:16:28Z</time>
      </trkpt>
      <trkpt lat="44.84083" lon="6.14306">
        <ele>1708.4001464844</ele>
        <time>2020-08-14T15:17:11Z</time>
      </trkpt>
      <trkpt lat="44.84091" lon="6.14303">
        <ele>1718.0131835938</ele>
        <time>2020-08-14T15:17:33Z</time>
      </trkpt>
      <trkpt lat="44.84081" lon="6.14319">
        <ele>1720.4165039062</ele>
        <time>2020-08-14T15:18:02Z</time>
      </trkpt>
      <trkpt lat="44.84073" lon="6.14335">
        <ele>1724.7426757812</ele>
        <time>2020-08-14T15:18:25Z</time>
      </trkpt>
      <trkpt lat="44.84076" lon="6.14338">
        <ele>1729.068359375</ele>
        <time>2020-08-14T15:18:43Z</time>
      </trkpt>
      <trkpt lat="44.84084" lon="6.14332">
        <ele>1733.875</ele>
        <time>2020-08-14T15:19:00Z</time>
      </trkpt>
      <trkpt lat="44.84099" lon="6.14327">
        <ele>1741.5656738281</ele>
        <time>2020-08-14T15:19:32Z</time>
      </trkpt>
      <trkpt lat="44.84112" lon="6.14333">
        <ele>1746.3723144531</ele>
        <time>2020-08-14T15:20:00Z</time>
      </trkpt>
      <trkpt lat="44.84129" lon="6.14343">
        <ele>1754.5432128906</ele>
        <time>2020-08-14T15:20:44Z</time>
      </trkpt>
      <trkpt lat="44.84142" lon="6.1434">
        <ele>1769.4438476562</ele>
        <time>2020-08-14T15:23:37Z</time>
      </trkpt>
      <trkpt lat="44.84136" lon="6.14349">
        <ele>1771.8469238281</ele>
        <time>2020-08-14T15:24:54Z</time>
      </trkpt>
      <trkpt lat="44.84129" lon="6.1434">
        <ele>1773.2893066406</ele>
        <time>2020-08-14T15:25:27Z</time>
      </trkpt>
      <trkpt lat="44.84131" lon="6.1433">
        <ele>1774.2504882812</ele>
        <time>2020-08-14T15:26:08Z</time>
      </trkpt>
      <trkpt lat="44.84143" lon="6.14333">
        <ele>1774.2504882812</ele>
        <time>2020-08-14T15:26:34Z</time>
      </trkpt>
      <trkpt lat="44.84133" lon="6.14344">
        <ele>1776.6538085938</ele>
        <time>2020-08-14T15:27:22Z</time>
      </trkpt>
      <trkpt lat="44.84133" lon="6.14344">
        <ele>1778.5764160156</ele>
        <time>2020-08-14T15:27:49Z</time>
      </trkpt>
      <trkpt lat="44.84135" lon="6.14358">
        <ele>1780.4990234375</ele>
        <time>2020-08-14T15:28:22Z</time>
      </trkpt>
      <trkpt lat="44.84146" lon="6.14373">
        <ele>1774.2504882812</ele>
        <time>2020-08-14T15:28:44Z</time>
      </trkpt>
      <trkpt lat="44.84155" lon="6.14368">
        <ele>1771.3662109375</ele>
        <time>2020-08-14T15:29:01Z</time>
      </trkpt>
      <trkpt lat="44.84159" lon="6.14364">
        <ele>1771.3662109375</ele>
        <time>2020-08-14T15:29:04Z</time>
      </trkpt>
      <trkpt lat="44.84168" lon="6.14356">
        <ele>1767.5209960938</ele>
        <time>2020-08-14T15:29:19Z</time>
      </trkpt>
      <trkpt lat="44.84173" lon="6.14347">
        <ele>1762.7145996094</ele>
        <time>2020-08-14T15:29:38Z</time>
      </trkpt>
      <trkpt lat="44.84182" lon="6.14339">
        <ele>1762.2338867188</ele>
        <time>2020-08-14T15:29:53Z</time>
      </trkpt>
      <trkpt lat="44.8419" lon="6.14328">
        <ele>1759.8305664062</ele>
        <time>2020-08-14T15:30:08Z</time>
      </trkpt>
      <trkpt lat="44.84195" lon="6.14321">
        <ele>1758.8693847656</ele>
        <time>2020-08-14T15:30:20Z</time>
      </trkpt>
      <trkpt lat="44.84202" lon="6.14313">
        <ele>1758.8693847656</ele>
        <time>2020-08-14T15:30:37Z</time>
      </trkpt>
      <trkpt lat="44.84208" lon="6.14298">
        <ele>1760.7919921875</ele>
        <time>2020-08-14T15:30:56Z</time>
      </trkpt>
      <trkpt lat="44.84217" lon="6.14285">
        <ele>1761.2727050781</ele>
        <time>2020-08-14T15:31:13Z</time>
      </trkpt>
      <trkpt lat="44.84216" lon="6.1429">
        <ele>1761.2727050781</ele>
        <time>2020-08-14T15:31:28Z</time>
      </trkpt>
      <trkpt lat="44.84217" lon="6.14294">
        <ele>1765.1179199219</ele>
        <time>2020-08-14T15:31:44Z</time>
      </trkpt>
      <trkpt lat="44.84223" lon="6.14292">
        <ele>1769.4438476562</ele>
        <time>2020-08-14T15:32:01Z</time>
      </trkpt>
      <trkpt lat="44.84231" lon="6.14297">
        <ele>1774.2504882812</ele>
        <time>2020-08-14T15:32:20Z</time>
      </trkpt>
      <trkpt lat="44.84239" lon="6.14301">
        <ele>1779.0568847656</ele>
        <time>2020-08-14T15:32:42Z</time>
      </trkpt>
      <trkpt lat="44.84245" lon="6.14303">
        <ele>1783.8635253906</ele>
        <time>2020-08-14T15:33:03Z</time>
      </trkpt>
      <trkpt lat="44.8423" lon="6.14307">
        <ele>1792.99609375</ele>
        <time>2020-08-14T15:33:26Z</time>
      </trkpt>
      <trkpt lat="44.84219" lon="6.14321">
        <ele>1798.7639160156</ele>
        <time>2020-08-14T15:33:51Z</time>
      </trkpt>
      <trkpt lat="44.84223" lon="6.14331">
        <ele>1803.08984375</ele>
        <time>2020-08-14T15:34:09Z</time>
      </trkpt>
      <trkpt lat="44.84228" lon="6.14331">
        <ele>1805.0126953125</ele>
        <time>2020-08-14T15:34:22Z</time>
      </trkpt>
      <trkpt lat="44.84235" lon="6.14329">
        <ele>1808.3771972656</ele>
        <time>2020-08-14T15:34:47Z</time>
      </trkpt>
      <trkpt lat="44.84237" lon="6.14335">
        <ele>1811.7419433594</ele>
        <time>2020-08-14T15:35:06Z</time>
      </trkpt>
      <trkpt lat="44.84248" lon="6.14338">
        <ele>1816.0676269531</ele>
        <time>2020-08-14T15:35:26Z</time>
      </trkpt>
      <trkpt lat="44.8425" lon="6.14341">
        <ele>1817.0290527344</ele>
        <time>2020-08-14T15:35:54Z</time>
      </trkpt>
      <trkpt lat="44.84239" lon="6.14353">
        <ele>1817.990234375</ele>
        <time>2020-08-14T15:36:20Z</time>
      </trkpt>
      <trkpt lat="44.84235" lon="6.14366">
        <ele>1818.9516601562</ele>
        <time>2020-08-14T15:36:39Z</time>
      </trkpt>
      <trkpt lat="44.84243" lon="6.14367">
        <ele>1819.4323730469</ele>
        <time>2020-08-14T15:36:55Z</time>
      </trkpt>
      <trkpt lat="44.84251" lon="6.14361">
        <ele>1821.3549804688</ele>
        <time>2020-08-14T15:37:11Z</time>
      </trkpt>
      <trkpt lat="44.84261" lon="6.14362">
        <ele>1824.2390136719</ele>
        <time>2020-08-14T15:37:27Z</time>
      </trkpt>
      <trkpt lat="44.84274" lon="6.1436">
        <ele>1830.0068359375</ele>
        <time>2020-08-14T15:37:47Z</time>
      </trkpt>
      <trkpt lat="44.84287" lon="6.14362">
        <ele>1831.9294433594</ele>
        <time>2020-08-14T15:38:12Z</time>
      </trkpt>
      <trkpt lat="44.84296" lon="6.14356">
        <ele>1837.216796875</ele>
        <time>2020-08-14T15:38:32Z</time>
      </trkpt>
      <trkpt lat="44.84302" lon="6.14354">
        <ele>1839.1394042969</ele>
        <time>2020-08-14T15:38:53Z</time>
      </trkpt>
      <trkpt lat="44.84299" lon="6.14359">
        <ele>1839.6201171875</ele>
        <time>2020-08-14T15:39:12Z</time>
      </trkpt>
      <trkpt lat="44.84287" lon="6.1437">
        <ele>1843.4653320312</ele>
        <time>2020-08-14T15:39:40Z</time>
      </trkpt>
      <trkpt lat="44.84276" lon="6.14377">
        <ele>1846.8298339844</ele>
        <time>2020-08-14T15:40:01Z</time>
      </trkpt>
      <trkpt lat="44.84263" lon="6.14392">
        <ele>1848.7524414062</ele>
        <time>2020-08-14T15:40:29Z</time>
      </trkpt>
      <trkpt lat="44.84253" lon="6.14409">
        <ele>1847.7912597656</ele>
        <time>2020-08-14T15:40:51Z</time>
      </trkpt>
      <trkpt lat="44.84242" lon="6.14425">
        <ele>1844.9072265625</ele>
        <time>2020-08-14T15:41:13Z</time>
      </trkpt>
      <trkpt lat="44.84234" lon="6.1444">
        <ele>1845.8686523438</ele>
        <time>2020-08-14T15:41:34Z</time>
      </trkpt>
      <trkpt lat="44.84224" lon="6.14452">
        <ele>1843.9460449219</ele>
        <time>2020-08-14T15:41:52Z</time>
      </trkpt>
      <trkpt lat="44.84214" lon="6.14465">
        <ele>1846.3493652344</ele>
        <time>2020-08-14T15:42:17Z</time>
      </trkpt>
      <trkpt lat="44.84222" lon="6.14466">
        <ele>1854.5205078125</ele>
        <time>2020-08-14T15:42:45Z</time>
      </trkpt>
      <trkpt lat="44.84224" lon="6.14468">
        <ele>1855.4819335938</ele>
        <time>2020-08-14T15:44:34Z</time>
      </trkpt>
      <trkpt lat="44.84239" lon="6.14468">
        <ele>1857.4045410156</ele>
        <time>2020-08-14T15:44:55Z</time>
      </trkpt>
      <trkpt lat="44.84246" lon="6.14471">
        <ele>1857.8852539062</ele>
        <time>2020-08-14T15:45:11Z</time>
      </trkpt>
      <trkpt lat="44.84259" lon="6.14468">
        <ele>1863.6528320312</ele>
        <time>2020-08-14T15:45:29Z</time>
      </trkpt>
      <trkpt lat="44.84277" lon="6.14469">
        <ele>1865.5756835938</ele>
        <time>2020-08-14T15:45:53Z</time>
      </trkpt>
      <trkpt lat="44.84291" lon="6.14464">
        <ele>1871.82421875</ele>
        <time>2020-08-14T15:46:15Z</time>
      </trkpt>
      <trkpt lat="44.84303" lon="6.14455">
        <ele>1872.7856445312</ele>
        <time>2020-08-14T15:46:33Z</time>
      </trkpt>
      <trkpt lat="44.84313" lon="6.14447">
        <ele>1874.7082519531</ele>
        <time>2020-08-14T15:46:49Z</time>
      </trkpt>
      <trkpt lat="44.84323" lon="6.1444">
        <ele>1876.1501464844</ele>
        <time>2020-08-14T15:47:10Z</time>
      </trkpt>
      <trkpt lat="44.84337" lon="6.1443">
        <ele>1879.5146484375</ele>
        <time>2020-08-14T15:47:33Z</time>
      </trkpt>
      <trkpt lat="44.84346" lon="6.14421">
        <ele>1881.4372558594</ele>
        <time>2020-08-14T15:47:55Z</time>
      </trkpt>
      <trkpt lat="44.84357" lon="6.14421">
        <ele>1882.3986816406</ele>
        <time>2020-08-14T15:48:11Z</time>
      </trkpt>
      <trkpt lat="44.84365" lon="6.14425">
        <ele>1883.8405761719</ele>
        <time>2020-08-14T15:48:28Z</time>
      </trkpt>
      <trkpt lat="44.84354" lon="6.14423">
        <ele>1884.8022460938</ele>
        <time>2020-08-14T15:48:46Z</time>
      </trkpt>
      <trkpt lat="44.84353" lon="6.14428">
        <ele>1886.244140625</ele>
        <time>2020-08-14T15:49:05Z</time>
      </trkpt>
      <trkpt lat="44.84355" lon="6.14427">
        <ele>1886.724609375</ele>
        <time>2020-08-14T15:49:26Z</time>
      </trkpt>
      <trkpt lat="44.84352" lon="6.1443">
        <ele>1888.1667480469</ele>
        <time>2020-08-14T15:49:40Z</time>
      </trkpt>
      <trkpt lat="44.84353" lon="6.14429">
        <ele>1886.724609375</ele>
        <time>2020-08-14T15:50:08Z</time>
      </trkpt>
      <trkpt lat="44.84353" lon="6.14428">
        <ele>1885.2827148438</ele>
        <time>2020-08-14T15:50:25Z</time>
      </trkpt>
      <trkpt lat="44.84358" lon="6.14432">
        <ele>1884.8022460938</ele>
        <time>2020-08-14T15:51:48Z</time>
      </trkpt>
      <trkpt lat="44.84353" lon="6.14421">
        <ele>1884.8022460938</ele>
        <time>2020-08-14T15:53:42Z</time>
      </trkpt>
      <trkpt lat="44.84359" lon="6.14432">
        <ele>1886.724609375</ele>
        <time>2020-08-14T15:57:45Z</time>
      </trkpt>
      <trkpt lat="44.84363" lon="6.14433">
        <ele>1880.9567871094</ele>
        <time>2020-08-14T15:58:24Z</time>
      </trkpt>
      <trkpt lat="44.84351" lon="6.14432">
        <ele>1885.2827148438</ele>
        <time>2020-08-14T15:59:19Z</time>
      </trkpt>
      <trkpt lat="44.84349" lon="6.14428">
        <ele>1881.91796875</ele>
        <time>2020-08-14T16:00:06Z</time>
      </trkpt>
      <trkpt lat="44.84347" lon="6.14438">
        <ele>1883.3598632812</ele>
        <time>2020-08-14T16:01:19Z</time>
      </trkpt>
      <trkpt lat="44.84362" lon="6.14435">
        <ele>1885.7634277344</ele>
        <time>2020-08-14T16:01:40Z</time>
      </trkpt>
      <trkpt lat="44.84377" lon="6.14434">
        <ele>1887.2053222656</ele>
        <time>2020-08-14T16:01:58Z</time>
      </trkpt>
      <trkpt lat="44.84391" lon="6.14432">
        <ele>1891.53125</ele>
        <time>2020-08-14T16:02:16Z</time>
      </trkpt>
      <trkpt lat="44.84399" lon="6.14434">
        <ele>1892.0119628906</ele>
        <time>2020-08-14T16:02:36Z</time>
      </trkpt>
      <trkpt lat="44.84411" lon="6.1444">
        <ele>1894.4150390625</ele>
        <time>2020-08-14T16:02:54Z</time>
      </trkpt>
      <trkpt lat="44.84423" lon="6.14444">
        <ele>1895.8571777344</ele>
        <time>2020-08-14T16:03:11Z</time>
      </trkpt>
      <trkpt lat="44.84433" lon="6.14451">
        <ele>1895.3764648438</ele>
        <time>2020-08-14T16:03:26Z</time>
      </trkpt>
      <trkpt lat="44.84438" lon="6.1446">
        <ele>1896.818359375</ele>
        <time>2020-08-14T16:03:42Z</time>
      </trkpt>
      <trkpt lat="44.84456" lon="6.14469">
        <ele>1897.7797851562</ele>
        <time>2020-08-14T16:04:02Z</time>
      </trkpt>
      <trkpt lat="44.84465" lon="6.14473">
        <ele>1898.7409667969</ele>
        <time>2020-08-14T16:04:16Z</time>
      </trkpt>
      <trkpt lat="44.84474" lon="6.14484">
        <ele>1901.6252441406</ele>
        <time>2020-08-14T16:04:32Z</time>
      </trkpt>
      <trkpt lat="44.84472" lon="6.14489">
        <ele>1904.0285644531</ele>
        <time>2020-08-14T16:04:53Z</time>
      </trkpt>
      <trkpt lat="44.84478" lon="6.14499">
        <ele>1904.5090332031</ele>
        <time>2020-08-14T16:05:13Z</time>
      </trkpt>
      <trkpt lat="44.84491" lon="6.145">
        <ele>1904.9897460938</ele>
        <time>2020-08-14T16:05:29Z</time>
      </trkpt>
      <trkpt lat="44.84501" lon="6.1451">
        <ele>1905.4704589844</ele>
        <time>2020-08-14T16:05:45Z</time>
      </trkpt>
      <trkpt lat="44.84501" lon="6.14516">
        <ele>1904.5090332031</ele>
        <time>2020-08-14T16:05:55Z</time>
      </trkpt>
      <trkpt lat="44.84514" lon="6.14522">
        <ele>1910.2768554688</ele>
        <time>2020-08-14T16:06:14Z</time>
      </trkpt>
      <trkpt lat="44.84502" lon="6.14518">
        <ele>1912.6801757812</ele>
        <time>2020-08-14T16:06:33Z</time>
      </trkpt>
      <trkpt lat="44.84494" lon="6.14519">
        <ele>1917.9675292969</ele>
        <time>2020-08-14T16:06:51Z</time>
      </trkpt>
      <trkpt lat="44.84501" lon="6.14525">
        <ele>1921.8127441406</ele>
        <time>2020-08-14T16:07:06Z</time>
      </trkpt>
      <trkpt lat="44.84508" lon="6.14525">
        <ele>1920.8515625</ele>
        <time>2020-08-14T16:07:32Z</time>
      </trkpt>
      <trkpt lat="44.84518" lon="6.14532">
        <ele>1920.3708496094</ele>
        <time>2020-08-14T16:07:46Z</time>
      </trkpt>
      <trkpt lat="44.84517" lon="6.14536">
        <ele>1923.2548828125</ele>
        <time>2020-08-14T16:07:59Z</time>
      </trkpt>
      <trkpt lat="44.84496" lon="6.14532">
        <ele>1924.6967773438</ele>
        <time>2020-08-14T16:08:15Z</time>
      </trkpt>
      <trkpt lat="44.84488" lon="6.14528">
        <ele>1929.5031738281</ele>
        <time>2020-08-14T16:08:33Z</time>
      </trkpt>
      <trkpt lat="44.8449" lon="6.14528">
        <ele>1929.9838867188</ele>
        <time>2020-08-14T16:09:03Z</time>
      </trkpt>
      <trkpt lat="44.84488" lon="6.14534">
        <ele>1930.4645996094</ele>
        <time>2020-08-14T16:09:10Z</time>
      </trkpt>
      <trkpt lat="44.84487" lon="6.14551">
        <ele>1933.3486328125</ele>
        <time>2020-08-14T16:09:25Z</time>
      </trkpt>
      <trkpt lat="44.84489" lon="6.14557">
        <ele>1935.2712402344</ele>
        <time>2020-08-14T16:09:41Z</time>
      </trkpt>
      <trkpt lat="44.84487" lon="6.14562">
        <ele>1936.7131347656</ele>
        <time>2020-08-14T16:10:40Z</time>
      </trkpt>
      <trkpt lat="44.84479" lon="6.14578">
        <ele>1938.6359863281</ele>
        <time>2020-08-14T16:11:00Z</time>
      </trkpt>
      <trkpt lat="44.84467" lon="6.14588">
        <ele>1940.5583496094</ele>
        <time>2020-08-14T16:11:20Z</time>
      </trkpt>
      <trkpt lat="44.84462" lon="6.14595">
        <ele>1943.9230957031</ele>
        <time>2020-08-14T16:11:40Z</time>
      </trkpt>
      <trkpt lat="44.84466" lon="6.14606">
        <ele>1945.3649902344</ele>
        <time>2020-08-14T16:11:59Z</time>
      </trkpt>
      <trkpt lat="44.8447" lon="6.14608">
        <ele>1946.8068847656</ele>
        <time>2020-08-14T16:12:09Z</time>
      </trkpt>
      <trkpt lat="44.84479" lon="6.14606">
        <ele>1944.8842773438</ele>
        <time>2020-08-14T16:12:21Z</time>
      </trkpt>
      <trkpt lat="44.84481" lon="6.14609">
        <ele>1944.4035644531</ele>
        <time>2020-08-14T16:12:35Z</time>
      </trkpt>
      <trkpt lat="44.84494" lon="6.14612">
        <ele>1944.8842773438</ele>
        <time>2020-08-14T16:13:01Z</time>
      </trkpt>
      <trkpt lat="44.84488" lon="6.14615">
        <ele>1945.845703125</ele>
        <time>2020-08-14T16:13:17Z</time>
      </trkpt>
      <trkpt lat="44.84482" lon="6.14617">
        <ele>1946.8068847656</ele>
        <time>2020-08-14T16:13:25Z</time>
      </trkpt>
      <trkpt lat="44.84478" lon="6.14625">
        <ele>1949.2104492188</ele>
        <time>2020-08-14T16:13:41Z</time>
      </trkpt>
      <trkpt lat="44.84489" lon="6.14624">
        <ele>1950.65234375</ele>
        <time>2020-08-14T16:13:53Z</time>
      </trkpt>
      <trkpt lat="44.84488" lon="6.14627">
        <ele>1951.6137695312</ele>
        <time>2020-08-14T16:13:59Z</time>
      </trkpt>
      <trkpt lat="44.8449" lon="6.14631">
        <ele>1951.6137695312</ele>
        <time>2020-08-14T16:14:03Z</time>
      </trkpt>
      <trkpt lat="44.84496" lon="6.1464">
        <ele>1954.9782714844</ele>
        <time>2020-08-14T16:14:23Z</time>
      </trkpt>
      <trkpt lat="44.84495" lon="6.14647">
        <ele>1957.8623046875</ele>
        <time>2020-08-14T16:14:39Z</time>
      </trkpt>
      <trkpt lat="44.84485" lon="6.1465">
        <ele>1958.8234863281</ele>
        <time>2020-08-14T16:14:59Z</time>
      </trkpt>
      <trkpt lat="44.84483" lon="6.1465">
        <ele>1958.8234863281</ele>
        <time>2020-08-14T16:15:25Z</time>
      </trkpt>
      <trkpt lat="44.84472" lon="6.14648">
        <ele>1960.74609375</ele>
        <time>2020-08-14T16:15:49Z</time>
      </trkpt>
      <trkpt lat="44.84473" lon="6.14647">
        <ele>1961.2268066406</ele>
        <time>2020-08-14T16:16:09Z</time>
      </trkpt>
      <trkpt lat="44.8447" lon="6.14649">
        <ele>1961.2268066406</ele>
        <time>2020-08-14T16:16:26Z</time>
      </trkpt>
      <trkpt lat="44.84469" lon="6.14642">
        <ele>1961.2268066406</ele>
        <time>2020-08-14T16:16:49Z</time>
      </trkpt>
      <trkpt lat="44.84468" lon="6.14646">
        <ele>1961.7075195312</ele>
        <time>2020-08-14T16:17:06Z</time>
      </trkpt>
      <trkpt lat="44.8447" lon="6.14647">
        <ele>1962.6687011719</ele>
        <time>2020-08-14T16:17:24Z</time>
      </trkpt>
    </trkseg>
  </trk>
</gpx>